<?xml version='1.0' encoding='UTF-8'?>
<gpx version="1.1" creator="https://www.komoot.de" xmlns="http://www.topografix.com/GPX/1/1" xmlns:xsi="http://www.w3.org/2001/XMLSchema-instance" xsi:schemaLocation="http://www.topografix.com/GPX/1/1 http://www.topografix.com/GPX/1/1/gpx.xsd">
  <metadata>
    <name>39_700NeuligSissacherflue</name>
    <author>
      <link href="https://www.komoot.de">
        <text>komoot</text>
        <type>text/html</type>
      </link>
    </author>
  </metadata>
  <trk>
    <name>39_700NeuligSissacherflue</name>
    <trkseg>
      <trkpt lat="47.541124" lon="7.871029">
        <ele>343.039142</ele>
        <time>2021-11-07T11:17:35.351Z</time>
      </trkpt>
      <trkpt lat="47.540933" lon="7.871187">
        <ele>343.039142</ele>
        <time>2021-11-07T11:17:40.187Z</time>
      </trkpt>
      <trkpt lat="47.540894" lon="7.871220">
        <ele>343.039142</ele>
        <time>2021-11-07T11:17:41.297Z</time>
      </trkpt>
      <trkpt lat="47.540693" lon="7.871390">
        <ele>343.039142</ele>
        <time>2021-11-07T11:17:46.694Z</time>
      </trkpt>
      <trkpt lat="47.540463" lon="7.871584">
        <ele>343.039142</ele>
        <time>2021-11-07T11:17:52.849Z</time>
      </trkpt>
      <trkpt lat="47.540265" lon="7.871808">
        <ele>343.228337</ele>
        <time>2021-11-07T11:17:58.340Z</time>
      </trkpt>
      <trkpt lat="47.540216" lon="7.871851">
        <ele>343.326631</ele>
        <time>2021-11-07T11:17:59.788Z</time>
      </trkpt>
      <trkpt lat="47.540034" lon="7.871970">
        <ele>343.669983</ele>
        <time>2021-11-07T11:18:04.395Z</time>
      </trkpt>
      <trkpt lat="47.539930" lon="7.872041">
        <ele>343.867621</ele>
        <time>2021-11-07T11:18:06.936Z</time>
      </trkpt>
      <trkpt lat="47.539841" lon="7.872151">
        <ele>344.067671</ele>
        <time>2021-11-07T11:18:09.956Z</time>
      </trkpt>
      <trkpt lat="47.539736" lon="7.872331">
        <ele>344.344840</ele>
        <time>2021-11-07T11:18:13.410Z</time>
      </trkpt>
      <trkpt lat="47.539678" lon="7.872430">
        <ele>344.497566</ele>
        <time>2021-11-07T11:18:15.485Z</time>
      </trkpt>
      <trkpt lat="47.539222" lon="7.873416">
        <ele>345.890098</ele>
        <time>2021-11-07T11:18:33.027Z</time>
      </trkpt>
      <trkpt lat="47.538278" lon="7.874319">
        <ele>347.127128</ele>
        <time>2021-11-07T11:18:52.681Z</time>
      </trkpt>
      <trkpt lat="47.537716" lon="7.874966">
        <ele>347.843835</ele>
        <time>2021-11-07T11:19:06.656Z</time>
      </trkpt>
      <trkpt lat="47.537261" lon="7.875237">
        <ele>348.810975</ele>
        <time>2021-11-07T11:19:16.173Z</time>
      </trkpt>
      <trkpt lat="47.537182" lon="7.875293">
        <ele>349.008113</ele>
        <time>2021-11-07T11:19:18.161Z</time>
      </trkpt>
      <trkpt lat="47.536921" lon="7.875537">
        <ele>349.702833</ele>
        <time>2021-11-07T11:19:24.128Z</time>
      </trkpt>
      <trkpt lat="47.536757" lon="7.875759">
        <ele>350.202919</ele>
        <time>2021-11-07T11:19:28.730Z</time>
      </trkpt>
      <trkpt lat="47.536632" lon="7.875912">
        <ele>350.567921</ele>
        <time>2021-11-07T11:19:31.898Z</time>
      </trkpt>
      <trkpt lat="47.536444" lon="7.876177">
        <ele>351.152089</ele>
        <time>2021-11-07T11:19:38.860Z</time>
      </trkpt>
      <trkpt lat="47.535851" lon="7.877319">
        <ele>355.007604</ele>
        <time>2021-11-07T11:20:10.173Z</time>
      </trkpt>
      <trkpt lat="47.535770" lon="7.877432">
        <ele>355.569865</ele>
        <time>2021-11-07T11:20:14.353Z</time>
      </trkpt>
      <trkpt lat="47.535635" lon="7.877484">
        <ele>356.274722</ele>
        <time>2021-11-07T11:20:20.221Z</time>
      </trkpt>
      <trkpt lat="47.535551" lon="7.877487">
        <ele>356.699306</ele>
        <time>2021-11-07T11:20:22.129Z</time>
      </trkpt>
      <trkpt lat="47.535322" lon="7.877590">
        <ele>357.908642</ele>
        <time>2021-11-07T11:20:32.181Z</time>
      </trkpt>
      <trkpt lat="47.535088" lon="7.877742">
        <ele>359.199776</ele>
        <time>2021-11-07T11:20:40.013Z</time>
      </trkpt>
      <trkpt lat="47.534855" lon="7.878090">
        <ele>360.871810</ele>
        <time>2021-11-07T11:20:51.996Z</time>
      </trkpt>
      <trkpt lat="47.534778" lon="7.878270">
        <ele>361.570865</ele>
        <time>2021-11-07T11:20:59.303Z</time>
      </trkpt>
      <trkpt lat="47.534825" lon="7.878414">
        <ele>362.086478</ele>
        <time>2021-11-07T11:21:01.929Z</time>
      </trkpt>
      <trkpt lat="47.534946" lon="7.878790">
        <ele>363.429239</ele>
        <time>2021-11-07T11:21:13.977Z</time>
      </trkpt>
      <trkpt lat="47.534908" lon="7.878975">
        <ele>364.052613</ele>
        <time>2021-11-07T11:21:18.035Z</time>
      </trkpt>
      <trkpt lat="47.534616" lon="7.879490">
        <ele>366.220613</ele>
        <time>2021-11-07T11:21:34.982Z</time>
      </trkpt>
      <trkpt lat="47.533892" lon="7.880353">
        <ele>370.080077</ele>
        <time>2021-11-07T11:22:02.721Z</time>
      </trkpt>
      <trkpt lat="47.533606" lon="7.880961">
        <ele>371.057124</ele>
        <time>2021-11-07T11:22:15.030Z</time>
      </trkpt>
      <trkpt lat="47.533374" lon="7.881639">
        <ele>372.059346</ele>
        <time>2021-11-07T11:22:26.075Z</time>
      </trkpt>
      <trkpt lat="47.533014" lon="7.882949">
        <ele>373.058378</ele>
        <time>2021-11-07T11:22:43.990Z</time>
      </trkpt>
      <trkpt lat="47.532859" lon="7.883508">
        <ele>372.912070</ele>
        <time>2021-11-07T11:22:49.868Z</time>
      </trkpt>
      <trkpt lat="47.532713" lon="7.884122">
        <ele>372.754465</ele>
        <time>2021-11-07T11:22:55.565Z</time>
      </trkpt>
      <trkpt lat="47.532699" lon="7.884224">
        <ele>372.729265</ele>
        <time>2021-11-07T11:22:56.520Z</time>
      </trkpt>
      <trkpt lat="47.532670" lon="7.884773">
        <ele>372.595941</ele>
        <time>2021-11-07T11:23:01.013Z</time>
      </trkpt>
      <trkpt lat="47.532658" lon="7.884989">
        <ele>372.528412</ele>
        <time>2021-11-07T11:23:02.625Z</time>
      </trkpt>
      <trkpt lat="47.532650" lon="7.885569">
        <ele>371.890879</ele>
        <time>2021-11-07T11:23:07.127Z</time>
      </trkpt>
      <trkpt lat="47.532505" lon="7.887120">
        <ele>370.170119</ele>
        <time>2021-11-07T11:23:19.079Z</time>
      </trkpt>
      <trkpt lat="47.532288" lon="7.887728">
        <ele>369.432620</ele>
        <time>2021-11-07T11:23:24.256Z</time>
      </trkpt>
      <trkpt lat="47.532011" lon="7.888896">
        <ele>368.193050</ele>
        <time>2021-11-07T11:23:33.486Z</time>
      </trkpt>
      <trkpt lat="47.531843" lon="7.889349">
        <ele>367.675537</ele>
        <time>2021-11-07T11:23:37.523Z</time>
      </trkpt>
      <trkpt lat="47.531560" lon="7.889776">
        <ele>367.076411</ele>
        <time>2021-11-07T11:23:42.463Z</time>
      </trkpt>
      <trkpt lat="47.531265" lon="7.889937">
        <ele>367.005254</ele>
        <time>2021-11-07T11:23:46.431Z</time>
      </trkpt>
      <trkpt lat="47.531076" lon="7.890029">
        <ele>367.050556</ele>
        <time>2021-11-07T11:23:49.272Z</time>
      </trkpt>
      <trkpt lat="47.530857" lon="7.890189">
        <ele>367.106162</ele>
        <time>2021-11-07T11:23:52.667Z</time>
      </trkpt>
      <trkpt lat="47.530606" lon="7.890373">
        <ele>367.169936</ele>
        <time>2021-11-07T11:23:57.155Z</time>
      </trkpt>
      <trkpt lat="47.530322" lon="7.890690">
        <ele>367.250915</ele>
        <time>2021-11-07T11:24:03.148Z</time>
      </trkpt>
      <trkpt lat="47.529972" lon="7.891210">
        <ele>367.369502</ele>
        <time>2021-11-07T11:24:12.311Z</time>
      </trkpt>
      <trkpt lat="47.529714" lon="7.891609">
        <ele>367.762845</ele>
        <time>2021-11-07T11:24:19.644Z</time>
      </trkpt>
      <trkpt lat="47.529695" lon="7.891638">
        <ele>367.791615</ele>
        <time>2021-11-07T11:24:20.630Z</time>
      </trkpt>
      <trkpt lat="47.529235" lon="7.892158">
        <ele>368.401828</ele>
        <time>2021-11-07T11:24:31.560Z</time>
      </trkpt>
      <trkpt lat="47.528331" lon="7.892682">
        <ele>369.520731</ele>
        <time>2021-11-07T11:24:50.262Z</time>
      </trkpt>
      <trkpt lat="47.528003" lon="7.892732">
        <ele>370.067172</ele>
        <time>2021-11-07T11:24:55.968Z</time>
      </trkpt>
      <trkpt lat="47.527498" lon="7.892650">
        <ele>370.909085</ele>
        <time>2021-11-07T11:25:05.441Z</time>
      </trkpt>
      <trkpt lat="47.527011" lon="7.893061">
        <ele>371.838000</ele>
        <time>2021-11-07T11:25:18.633Z</time>
      </trkpt>
      <trkpt lat="47.526709" lon="7.893617">
        <ele>372.909013</ele>
        <time>2021-11-07T11:25:31.165Z</time>
      </trkpt>
      <trkpt lat="47.526504" lon="7.894030">
        <ele>373.876480</ele>
        <time>2021-11-07T11:25:41.346Z</time>
      </trkpt>
      <trkpt lat="47.526451" lon="7.893983">
        <ele>374.049154</ele>
        <time>2021-11-07T11:25:42.736Z</time>
      </trkpt>
      <trkpt lat="47.526401" lon="7.893964">
        <ele>374.193442</ele>
        <time>2021-11-07T11:25:43.553Z</time>
      </trkpt>
      <trkpt lat="47.526335" lon="7.893960">
        <ele>374.378079</ele>
        <time>2021-11-07T11:25:45.627Z</time>
      </trkpt>
      <trkpt lat="47.526257" lon="7.894278">
        <ele>375.016663</ele>
        <time>2021-11-07T11:25:51.839Z</time>
      </trkpt>
      <trkpt lat="47.525725" lon="7.895110">
        <ele>377.179387</ele>
        <time>2021-11-07T11:26:10.921Z</time>
      </trkpt>
      <trkpt lat="47.525603" lon="7.895265">
        <ele>377.430126</ele>
        <time>2021-11-07T11:26:16.537Z</time>
      </trkpt>
      <trkpt lat="47.525631" lon="7.895442">
        <ele>377.584786</ele>
        <time>2021-11-07T11:26:19.386Z</time>
      </trkpt>
      <trkpt lat="47.525631" lon="7.895583">
        <ele>377.704741</ele>
        <time>2021-11-07T11:26:20.578Z</time>
      </trkpt>
      <trkpt lat="47.525622" lon="7.895944">
        <ele>378.012071</ele>
        <time>2021-11-07T11:26:28.014Z</time>
      </trkpt>
      <trkpt lat="47.525590" lon="7.896117">
        <ele>378.164673</ele>
        <time>2021-11-07T11:26:29.566Z</time>
      </trkpt>
      <trkpt lat="47.525518" lon="7.896336">
        <ele>378.371897</ele>
        <time>2021-11-07T11:26:34.374Z</time>
      </trkpt>
      <trkpt lat="47.524834" lon="7.897636">
        <ele>379.532471</ele>
        <time>2021-11-07T11:26:51.297Z</time>
      </trkpt>
      <trkpt lat="47.524617" lon="7.898216">
        <ele>379.530628</ele>
        <time>2021-11-07T11:26:57.470Z</time>
      </trkpt>
      <trkpt lat="47.524360" lon="7.898951">
        <ele>379.528328</ele>
        <time>2021-11-07T11:27:05.011Z</time>
      </trkpt>
      <trkpt lat="47.524309" lon="7.899115">
        <ele>379.527827</ele>
        <time>2021-11-07T11:27:06.925Z</time>
      </trkpt>
      <trkpt lat="47.523896" lon="7.900001">
        <ele>380.037196</ele>
        <time>2021-11-07T11:27:18.848Z</time>
      </trkpt>
      <trkpt lat="47.523861" lon="7.900049">
        <ele>380.135546</ele>
        <time>2021-11-07T11:27:19.827Z</time>
      </trkpt>
      <trkpt lat="47.523890" lon="7.900131">
        <ele>380.264416</ele>
        <time>2021-11-07T11:27:20.782Z</time>
      </trkpt>
      <trkpt lat="47.523945" lon="7.900256">
        <ele>380.472127</ele>
        <time>2021-11-07T11:27:22.317Z</time>
      </trkpt>
      <trkpt lat="47.523989" lon="7.900340">
        <ele>380.620132</ele>
        <time>2021-11-07T11:27:23.330Z</time>
      </trkpt>
      <trkpt lat="47.523957" lon="7.900371">
        <ele>380.698969</ele>
        <time>2021-11-07T11:27:24.133Z</time>
      </trkpt>
      <trkpt lat="47.523878" lon="7.900445">
        <ele>380.891690</ele>
        <time>2021-11-07T11:27:26.250Z</time>
      </trkpt>
      <trkpt lat="47.523739" lon="7.900557">
        <ele>381.217940</ele>
        <time>2021-11-07T11:27:29.124Z</time>
      </trkpt>
      <trkpt lat="47.523648" lon="7.900606">
        <ele>381.417571</ele>
        <time>2021-11-07T11:27:31.247Z</time>
      </trkpt>
      <trkpt lat="47.523620" lon="7.900698">
        <ele>381.558064</ele>
        <time>2021-11-07T11:27:33.323Z</time>
      </trkpt>
      <trkpt lat="47.523567" lon="7.900820">
        <ele>381.760028</ele>
        <time>2021-11-07T11:27:35.421Z</time>
      </trkpt>
      <trkpt lat="47.523433" lon="7.901043">
        <ele>382.175615</ele>
        <time>2021-11-07T11:27:40.539Z</time>
      </trkpt>
      <trkpt lat="47.523433" lon="7.901043">
        <ele>382.175615</ele>
        <time>2021-11-07T11:27:40.577Z</time>
      </trkpt>
      <trkpt lat="47.523340" lon="7.901197">
        <ele>382.463247</ele>
        <time>2021-11-07T11:27:44.620Z</time>
      </trkpt>
      <trkpt lat="47.523036" lon="7.901580">
        <ele>383.338478</ele>
        <time>2021-11-07T11:27:56.303Z</time>
      </trkpt>
      <trkpt lat="47.522688" lon="7.901843">
        <ele>384.954032</ele>
        <time>2021-11-07T11:28:08.603Z</time>
      </trkpt>
      <trkpt lat="47.522554" lon="7.901999">
        <ele>385.658854</ele>
        <time>2021-11-07T11:28:14.954Z</time>
      </trkpt>
      <trkpt lat="47.522260" lon="7.902356">
        <ele>387.231015</ele>
        <time>2021-11-07T11:28:27.327Z</time>
      </trkpt>
      <trkpt lat="47.522132" lon="7.902476">
        <ele>387.857452</ele>
        <time>2021-11-07T11:28:31.885Z</time>
      </trkpt>
      <trkpt lat="47.522065" lon="7.902526">
        <ele>388.167692</ele>
        <time>2021-11-07T11:28:34.080Z</time>
      </trkpt>
      <trkpt lat="47.522038" lon="7.902562">
        <ele>388.317926</ele>
        <time>2021-11-07T11:28:35.584Z</time>
      </trkpt>
      <trkpt lat="47.522021" lon="7.902613">
        <ele>388.476743</ele>
        <time>2021-11-07T11:28:36.956Z</time>
      </trkpt>
      <trkpt lat="47.522013" lon="7.902637">
        <ele>388.551480</ele>
        <time>2021-11-07T11:28:37.717Z</time>
      </trkpt>
      <trkpt lat="47.521792" lon="7.903347">
        <ele>390.712746</ele>
        <time>2021-11-07T11:28:53.786Z</time>
      </trkpt>
      <trkpt lat="47.521297" lon="7.904312">
        <ele>392.925637</ele>
        <time>2021-11-07T11:29:17.853Z</time>
      </trkpt>
      <trkpt lat="47.520989" lon="7.905130">
        <ele>394.635883</ele>
        <time>2021-11-07T11:29:33.260Z</time>
      </trkpt>
      <trkpt lat="47.520866" lon="7.905494">
        <ele>395.379157</ele>
        <time>2021-11-07T11:29:38.924Z</time>
      </trkpt>
      <trkpt lat="47.520678" lon="7.906050">
        <ele>395.678808</ele>
        <time>2021-11-07T11:29:46.735Z</time>
      </trkpt>
      <trkpt lat="47.520566" lon="7.906668">
        <ele>395.850168</ele>
        <time>2021-11-07T11:29:53.754Z</time>
      </trkpt>
      <trkpt lat="47.520528" lon="7.906930">
        <ele>395.921933</ele>
        <time>2021-11-07T11:29:57.031Z</time>
      </trkpt>
      <trkpt lat="47.520515" lon="7.907103">
        <ele>395.968549</ele>
        <time>2021-11-07T11:29:58.810Z</time>
      </trkpt>
      <trkpt lat="47.520506" lon="7.907236">
        <ele>396.004346</ele>
        <time>2021-11-07T11:29:59.888Z</time>
      </trkpt>
      <trkpt lat="47.520551" lon="7.907422">
        <ele>396.057258</ele>
        <time>2021-11-07T11:30:02.310Z</time>
      </trkpt>
      <trkpt lat="47.520733" lon="7.907655">
        <ele>396.152665</ele>
        <time>2021-11-07T11:30:05.476Z</time>
      </trkpt>
      <trkpt lat="47.520738" lon="7.907839">
        <ele>396.201981</ele>
        <time>2021-11-07T11:30:07.597Z</time>
      </trkpt>
      <trkpt lat="47.520493" lon="7.908683">
        <ele>396.398495</ele>
        <time>2021-11-07T11:30:15.764Z</time>
      </trkpt>
      <trkpt lat="47.519997" lon="7.910833">
        <ele>397.033638</ele>
        <time>2021-11-07T11:30:41.711Z</time>
      </trkpt>
      <trkpt lat="47.519891" lon="7.911129">
        <ele>397.269303</ele>
        <time>2021-11-07T11:30:46.301Z</time>
      </trkpt>
      <trkpt lat="47.519720" lon="7.911522">
        <ele>397.598145</ele>
        <time>2021-11-07T11:30:52.385Z</time>
      </trkpt>
      <trkpt lat="47.519421" lon="7.912098">
        <ele>398.109161</ele>
        <time>2021-11-07T11:31:01.951Z</time>
      </trkpt>
      <trkpt lat="47.517688" lon="7.914418">
        <ele>400.583746</ele>
        <time>2021-11-07T11:31:46.530Z</time>
      </trkpt>
      <trkpt lat="47.517281" lon="7.915238">
        <ele>401.225984</ele>
        <time>2021-11-07T11:31:59.544Z</time>
      </trkpt>
      <trkpt lat="47.517140" lon="7.915259">
        <ele>401.358409</ele>
        <time>2021-11-07T11:32:02.044Z</time>
      </trkpt>
      <trkpt lat="47.516806" lon="7.914896">
        <ele>401.745579</ele>
        <time>2021-11-07T11:32:09.619Z</time>
      </trkpt>
      <trkpt lat="47.516748" lon="7.914873">
        <ele>401.801688</ele>
        <time>2021-11-07T11:32:10.790Z</time>
      </trkpt>
      <trkpt lat="47.516662" lon="7.914835">
        <ele>401.885555</ele>
        <time>2021-11-07T11:32:12.582Z</time>
      </trkpt>
      <trkpt lat="47.516626" lon="7.914830">
        <ele>401.919344</ele>
        <time>2021-11-07T11:32:13.277Z</time>
      </trkpt>
      <trkpt lat="47.516590" lon="7.914840">
        <ele>401.953572</ele>
        <time>2021-11-07T11:32:13.872Z</time>
      </trkpt>
      <trkpt lat="47.516569" lon="7.914864">
        <ele>401.978362</ele>
        <time>2021-11-07T11:32:14.407Z</time>
      </trkpt>
      <trkpt lat="47.516544" lon="7.914936">
        <ele>402.029456</ele>
        <time>2021-11-07T11:32:15.254Z</time>
      </trkpt>
      <trkpt lat="47.516391" lon="7.915243">
        <ele>402.269965</ele>
        <time>2021-11-07T11:32:20.046Z</time>
      </trkpt>
      <trkpt lat="47.515014" lon="7.917030">
        <ele>403.976572</ele>
        <time>2021-11-07T11:32:53.823Z</time>
      </trkpt>
      <trkpt lat="47.514635" lon="7.917349">
        <ele>404.616468</ele>
        <time>2021-11-07T11:33:01.941Z</time>
      </trkpt>
      <trkpt lat="47.514561" lon="7.917409">
        <ele>404.740304</ele>
        <time>2021-11-07T11:33:03.833Z</time>
      </trkpt>
      <trkpt lat="47.514255" lon="7.917714">
        <ele>405.281740</ele>
        <time>2021-11-07T11:33:11.302Z</time>
      </trkpt>
      <trkpt lat="47.513378" lon="7.918393">
        <ele>406.891451</ele>
        <time>2021-11-07T11:33:33.029Z</time>
      </trkpt>
      <trkpt lat="47.513160" lon="7.918764">
        <ele>407.782328</ele>
        <time>2021-11-07T11:33:40.530Z</time>
      </trkpt>
      <trkpt lat="47.513058" lon="7.918896">
        <ele>408.145700</ele>
        <time>2021-11-07T11:33:43.686Z</time>
      </trkpt>
      <trkpt lat="47.512938" lon="7.919052">
        <ele>408.574040</ele>
        <time>2021-11-07T11:33:47.465Z</time>
      </trkpt>
      <trkpt lat="47.512664" lon="7.919306">
        <ele>409.441154</ele>
        <time>2021-11-07T11:33:55.688Z</time>
      </trkpt>
      <trkpt lat="47.512255" lon="7.919538">
        <ele>410.615960</ele>
        <time>2021-11-07T11:34:07.613Z</time>
      </trkpt>
      <trkpt lat="47.512085" lon="7.919732">
        <ele>411.191678</ele>
        <time>2021-11-07T11:34:13.822Z</time>
      </trkpt>
      <trkpt lat="47.511964" lon="7.919989">
        <ele>412.062251</ele>
        <time>2021-11-07T11:34:20.302Z</time>
      </trkpt>
      <trkpt lat="47.511883" lon="7.920133">
        <ele>412.665343</ele>
        <time>2021-11-07T11:34:24.316Z</time>
      </trkpt>
      <trkpt lat="47.511632" lon="7.920105">
        <ele>413.864677</ele>
        <time>2021-11-07T11:34:33.297Z</time>
      </trkpt>
      <trkpt lat="47.511375" lon="7.920079">
        <ele>415.092065</ele>
        <time>2021-11-07T11:34:41.793Z</time>
      </trkpt>
      <trkpt lat="47.510704" lon="7.919944">
        <ele>418.318577</ele>
        <time>2021-11-07T11:35:08.754Z</time>
      </trkpt>
      <trkpt lat="47.510627" lon="7.919935">
        <ele>418.686602</ele>
        <time>2021-11-07T11:35:11.598Z</time>
      </trkpt>
      <trkpt lat="47.510551" lon="7.919925">
        <ele>419.050147</ele>
        <time>2021-11-07T11:35:15.064Z</time>
      </trkpt>
      <trkpt lat="47.509902" lon="7.920009">
        <ele>424.888789</ele>
        <time>2021-11-07T11:35:46.285Z</time>
      </trkpt>
      <trkpt lat="47.509811" lon="7.920040">
        <ele>425.882921</ele>
        <time>2021-11-07T11:35:50.687Z</time>
      </trkpt>
      <trkpt lat="47.509780" lon="7.919943">
        <ele>426.654605</ele>
        <time>2021-11-07T11:35:55.821Z</time>
      </trkpt>
      <trkpt lat="47.509592" lon="7.919606">
        <ele>429.797709</ele>
        <time>2021-11-07T11:36:08.984Z</time>
      </trkpt>
      <trkpt lat="47.509472" lon="7.919450">
        <ele>431.497905</ele>
        <time>2021-11-07T11:36:21.674Z</time>
      </trkpt>
      <trkpt lat="47.509413" lon="7.919394">
        <ele>432.244046</ele>
        <time>2021-11-07T11:36:24.690Z</time>
      </trkpt>
      <trkpt lat="47.509300" lon="7.919312">
        <ele>433.583829</ele>
        <time>2021-11-07T11:36:31.633Z</time>
      </trkpt>
      <trkpt lat="47.509213" lon="7.919220">
        <ele>434.722079</ele>
        <time>2021-11-07T11:36:42.897Z</time>
      </trkpt>
      <trkpt lat="47.508928" lon="7.918826">
        <ele>438.873511</ele>
        <time>2021-11-07T11:37:09.075Z</time>
      </trkpt>
      <trkpt lat="47.508826" lon="7.918731">
        <ele>440.861896</ele>
        <time>2021-11-07T11:37:15.477Z</time>
      </trkpt>
      <trkpt lat="47.508716" lon="7.918612">
        <ele>443.269896</ele>
        <time>2021-11-07T11:37:27.462Z</time>
      </trkpt>
      <trkpt lat="47.508696" lon="7.918579">
        <ele>443.799218</ele>
        <time>2021-11-07T11:37:30.712Z</time>
      </trkpt>
      <trkpt lat="47.508574" lon="7.918322">
        <ele>447.549443</ele>
        <time>2021-11-07T11:37:43.047Z</time>
      </trkpt>
      <trkpt lat="47.508539" lon="7.918215">
        <ele>448.968811</ele>
        <time>2021-11-07T11:37:48.304Z</time>
      </trkpt>
      <trkpt lat="47.508519" lon="7.918140">
        <ele>449.931483</ele>
        <time>2021-11-07T11:37:54.194Z</time>
      </trkpt>
      <trkpt lat="47.508288" lon="7.916949">
        <ele>464.725358</ele>
        <time>2021-11-07T11:39:07.626Z</time>
      </trkpt>
      <trkpt lat="47.507722" lon="7.915765">
        <ele>481.968786</ele>
        <time>2021-11-07T11:40:42.568Z</time>
      </trkpt>
      <trkpt lat="47.507619" lon="7.915426">
        <ele>486.377240</ele>
        <time>2021-11-07T11:41:05.870Z</time>
      </trkpt>
      <trkpt lat="47.507438" lon="7.914913">
        <ele>493.241272</ele>
        <time>2021-11-07T11:41:40.432Z</time>
      </trkpt>
      <trkpt lat="47.507031" lon="7.914093">
        <ele>503.138978</ele>
        <time>2021-11-07T11:42:31.542Z</time>
      </trkpt>
      <trkpt lat="47.506741" lon="7.913552">
        <ele>505.095760</ele>
        <time>2021-11-07T11:42:56.557Z</time>
      </trkpt>
      <trkpt lat="47.506620" lon="7.913426">
        <ele>505.716256</ele>
        <time>2021-11-07T11:43:01.603Z</time>
      </trkpt>
      <trkpt lat="47.506403" lon="7.913196">
        <ele>506.835660</ele>
        <time>2021-11-07T11:43:08.188Z</time>
      </trkpt>
      <trkpt lat="47.506357" lon="7.913069">
        <ele>507.243952</ele>
        <time>2021-11-07T11:43:10.695Z</time>
      </trkpt>
      <trkpt lat="47.506370" lon="7.912895">
        <ele>507.739953</ele>
        <time>2021-11-07T11:43:12.906Z</time>
      </trkpt>
      <trkpt lat="47.506397" lon="7.912810">
        <ele>508.006081</ele>
        <time>2021-11-07T11:43:14.727Z</time>
      </trkpt>
      <trkpt lat="47.506437" lon="7.912765">
        <ele>508.216802</ele>
        <time>2021-11-07T11:43:15.158Z</time>
      </trkpt>
      <trkpt lat="47.506603" lon="7.912858">
        <ele>508.961252</ele>
        <time>2021-11-07T11:43:17.970Z</time>
      </trkpt>
      <trkpt lat="47.507354" lon="7.913927">
        <ele>505.078552</ele>
        <time>2021-11-07T11:43:27.752Z</time>
      </trkpt>
      <trkpt lat="47.507503" lon="7.914069">
        <ele>503.979439</ele>
        <time>2021-11-07T11:43:29.299Z</time>
      </trkpt>
      <trkpt lat="47.507686" lon="7.914148">
        <ele>502.797108</ele>
        <time>2021-11-07T11:43:30.946Z</time>
      </trkpt>
      <trkpt lat="47.508426" lon="7.914164">
        <ele>498.795981</ele>
        <time>2021-11-07T11:43:37.556Z</time>
      </trkpt>
      <trkpt lat="47.508709" lon="7.914562">
        <ele>498.607383</ele>
        <time>2021-11-07T11:43:41.162Z</time>
      </trkpt>
      <trkpt lat="47.508782" lon="7.914668">
        <ele>498.557978</ele>
        <time>2021-11-07T11:43:42.092Z</time>
      </trkpt>
      <trkpt lat="47.509091" lon="7.915120">
        <ele>498.348095</ele>
        <time>2021-11-07T11:43:49.543Z</time>
      </trkpt>
      <trkpt lat="47.509594" lon="7.915837">
        <ele>498.010720</ele>
        <time>2021-11-07T11:44:07.658Z</time>
      </trkpt>
      <trkpt lat="47.509723" lon="7.915879">
        <ele>498.426244</ele>
        <time>2021-11-07T11:44:12.415Z</time>
      </trkpt>
      <trkpt lat="47.509854" lon="7.915813">
        <ele>499.434340</ele>
        <time>2021-11-07T11:44:16.140Z</time>
      </trkpt>
      <trkpt lat="47.509916" lon="7.915715">
        <ele>500.095072</ele>
        <time>2021-11-07T11:44:20.102Z</time>
      </trkpt>
      <trkpt lat="47.509948" lon="7.915569">
        <ele>500.850386</ele>
        <time>2021-11-07T11:44:24.422Z</time>
      </trkpt>
      <trkpt lat="47.510115" lon="7.915369">
        <ele>502.415223</ele>
        <time>2021-11-07T11:44:33.925Z</time>
      </trkpt>
      <trkpt lat="47.511596" lon="7.914259">
        <ele>513.915466</ele>
        <time>2021-11-07T11:45:55.743Z</time>
      </trkpt>
      <trkpt lat="47.511803" lon="7.913909">
        <ele>515.808796</ele>
        <time>2021-11-07T11:46:07.257Z</time>
      </trkpt>
      <trkpt lat="47.511968" lon="7.913303">
        <ele>518.467947</ele>
        <time>2021-11-07T11:46:22.040Z</time>
      </trkpt>
      <trkpt lat="47.512010" lon="7.913161">
        <ele>519.098840</ele>
        <time>2021-11-07T11:46:26.442Z</time>
      </trkpt>
      <trkpt lat="47.512111" lon="7.912826">
        <ele>520.591879</ele>
        <time>2021-11-07T11:46:34.180Z</time>
      </trkpt>
      <trkpt lat="47.512145" lon="7.912581">
        <ele>521.609806</ele>
        <time>2021-11-07T11:46:40.614Z</time>
      </trkpt>
      <trkpt lat="47.512145" lon="7.912284">
        <ele>522.677998</ele>
        <time>2021-11-07T11:46:46.675Z</time>
      </trkpt>
      <trkpt lat="47.512105" lon="7.911774">
        <ele>524.441584</ele>
        <time>2021-11-07T11:46:58.651Z</time>
      </trkpt>
      <trkpt lat="47.512094" lon="7.911561">
        <ele>525.175360</ele>
        <time>2021-11-07T11:47:04.894Z</time>
      </trkpt>
      <trkpt lat="47.512061" lon="7.911240">
        <ele>526.290673</ele>
        <time>2021-11-07T11:47:11.226Z</time>
      </trkpt>
      <trkpt lat="47.512046" lon="7.911143">
        <ele>526.632482</ele>
        <time>2021-11-07T11:47:14.498Z</time>
      </trkpt>
      <trkpt lat="47.512027" lon="7.911061">
        <ele>526.930260</ele>
        <time>2021-11-07T11:47:16.794Z</time>
      </trkpt>
      <trkpt lat="47.511999" lon="7.910990">
        <ele>527.212667</ele>
        <time>2021-11-07T11:47:18.744Z</time>
      </trkpt>
      <trkpt lat="47.511957" lon="7.910912">
        <ele>527.555312</ele>
        <time>2021-11-07T11:47:20.475Z</time>
      </trkpt>
      <trkpt lat="47.511612" lon="7.910466">
        <ele>529.884533</ele>
        <time>2021-11-07T11:47:34.023Z</time>
      </trkpt>
      <trkpt lat="47.511554" lon="7.910372">
        <ele>530.321863</ele>
        <time>2021-11-07T11:47:37.845Z</time>
      </trkpt>
      <trkpt lat="47.511423" lon="7.910000">
        <ele>532.133424</ele>
        <time>2021-11-07T11:47:48.211Z</time>
      </trkpt>
      <trkpt lat="47.511210" lon="7.908836">
        <ele>538.473971</ele>
        <time>2021-11-07T11:48:25.355Z</time>
      </trkpt>
      <trkpt lat="47.511051" lon="7.908448">
        <ele>540.860043</ele>
        <time>2021-11-07T11:48:38.814Z</time>
      </trkpt>
      <trkpt lat="47.511003" lon="7.908355">
        <ele>541.475420</ele>
        <time>2021-11-07T11:48:43.490Z</time>
      </trkpt>
      <trkpt lat="47.510770" lon="7.908048">
        <ele>543.903342</ele>
        <time>2021-11-07T11:48:57.366Z</time>
      </trkpt>
      <trkpt lat="47.509018" lon="7.905757">
        <ele>570.706628</ele>
        <time>2021-11-07T11:51:12.809Z</time>
      </trkpt>
      <trkpt lat="47.508735" lon="7.905378">
        <ele>576.970816</ele>
        <time>2021-11-07T11:51:42.640Z</time>
      </trkpt>
      <trkpt lat="47.508336" lon="7.904859">
        <ele>585.689418</ele>
        <time>2021-11-07T11:52:31.988Z</time>
      </trkpt>
      <trkpt lat="47.507755" lon="7.904094">
        <ele>598.420089</ele>
        <time>2021-11-07T11:53:41.440Z</time>
      </trkpt>
      <trkpt lat="47.507642" lon="7.903919">
        <ele>601.085347</ele>
        <time>2021-11-07T11:53:58.032Z</time>
      </trkpt>
      <trkpt lat="47.507513" lon="7.903762">
        <ele>603.807078</ele>
        <time>2021-11-07T11:54:13.894Z</time>
      </trkpt>
      <trkpt lat="47.507370" lon="7.903682">
        <ele>606.298563</ele>
        <time>2021-11-07T11:54:26.297Z</time>
      </trkpt>
      <trkpt lat="47.507207" lon="7.903725">
        <ele>608.996995</ele>
        <time>2021-11-07T11:54:42.099Z</time>
      </trkpt>
      <trkpt lat="47.506576" lon="7.904680">
        <ele>623.332371</ele>
        <time>2021-11-07T11:55:47.889Z</time>
      </trkpt>
      <trkpt lat="47.506523" lon="7.904711">
        <ele>623.638136</ele>
        <time>2021-11-07T11:55:52.871Z</time>
      </trkpt>
      <trkpt lat="47.506472" lon="7.904720">
        <ele>623.913715</ele>
        <time>2021-11-07T11:55:57.249Z</time>
      </trkpt>
      <trkpt lat="47.506293" lon="7.904649">
        <ele>624.908022</ele>
        <time>2021-11-07T11:56:06.091Z</time>
      </trkpt>
      <trkpt lat="47.506127" lon="7.904233">
        <ele>626.659222</ele>
        <time>2021-11-07T11:56:18.182Z</time>
      </trkpt>
      <trkpt lat="47.505921" lon="7.903877">
        <ele>628.358221</ele>
        <time>2021-11-07T11:56:28.696Z</time>
      </trkpt>
      <trkpt lat="47.505864" lon="7.903761">
        <ele>628.878130</ele>
        <time>2021-11-07T11:56:31.814Z</time>
      </trkpt>
      <trkpt lat="47.505779" lon="7.903771">
        <ele>629.335637</ele>
        <time>2021-11-07T11:56:34.080Z</time>
      </trkpt>
      <trkpt lat="47.505478" lon="7.903468">
        <ele>631.288686</ele>
        <time>2021-11-07T11:56:44.070Z</time>
      </trkpt>
      <trkpt lat="47.505092" lon="7.902759">
        <ele>632.054905</ele>
        <time>2021-11-07T11:56:54.677Z</time>
      </trkpt>
      <trkpt lat="47.504178" lon="7.900100">
        <ele>626.749995</ele>
        <time>2021-11-07T11:57:15.037Z</time>
      </trkpt>
      <trkpt lat="47.504061" lon="7.899727">
        <ele>625.725991</ele>
        <time>2021-11-07T11:57:17.723Z</time>
      </trkpt>
      <trkpt lat="47.503897" lon="7.899246">
        <ele>624.384401</ele>
        <time>2021-11-07T11:57:21.242Z</time>
      </trkpt>
      <trkpt lat="47.503634" lon="7.898466">
        <ele>622.213713</ele>
        <time>2021-11-07T11:57:27.017Z</time>
      </trkpt>
      <trkpt lat="47.503488" lon="7.897768">
        <ele>621.754400</ele>
        <time>2021-11-07T11:57:31.964Z</time>
      </trkpt>
      <trkpt lat="47.503447" lon="7.897629">
        <ele>621.669629</ele>
        <time>2021-11-07T11:57:33.104Z</time>
      </trkpt>
      <trkpt lat="47.503354" lon="7.897295">
        <ele>621.467718</ele>
        <time>2021-11-07T11:57:35.950Z</time>
      </trkpt>
      <trkpt lat="47.503096" lon="7.896269">
        <ele>620.855837</ele>
        <time>2021-11-07T11:57:48.310Z</time>
      </trkpt>
      <trkpt lat="47.502986" lon="7.895692">
        <ele>620.673066</ele>
        <time>2021-11-07T11:57:56.347Z</time>
      </trkpt>
      <trkpt lat="47.502949" lon="7.895491">
        <ele>620.684032</ele>
        <time>2021-11-07T11:58:00.126Z</time>
      </trkpt>
      <trkpt lat="47.502670" lon="7.894886">
        <ele>620.722590</ele>
        <time>2021-11-07T11:58:09.745Z</time>
      </trkpt>
      <trkpt lat="47.502517" lon="7.894597">
        <ele>620.741917</ele>
        <time>2021-11-07T11:58:15.462Z</time>
      </trkpt>
      <trkpt lat="47.502453" lon="7.894433">
        <ele>620.751886</ele>
        <time>2021-11-07T11:58:16.801Z</time>
      </trkpt>
      <trkpt lat="47.502224" lon="7.893360">
        <ele>619.968076</ele>
        <time>2021-11-07T11:58:26.200Z</time>
      </trkpt>
      <trkpt lat="47.502213" lon="7.892998">
        <ele>618.527529</ele>
        <time>2021-11-07T11:58:28.863Z</time>
      </trkpt>
      <trkpt lat="47.502217" lon="7.892900">
        <ele>618.137230</ele>
        <time>2021-11-07T11:58:29.446Z</time>
      </trkpt>
      <trkpt lat="47.502142" lon="7.892201">
        <ele>615.323599</ele>
        <time>2021-11-07T11:58:33.989Z</time>
      </trkpt>
      <trkpt lat="47.501593" lon="7.891145">
        <ele>609.915645</ele>
        <time>2021-11-07T11:58:41.907Z</time>
      </trkpt>
      <trkpt lat="47.501490" lon="7.890827">
        <ele>607.694298</ele>
        <time>2021-11-07T11:58:43.951Z</time>
      </trkpt>
      <trkpt lat="47.501442" lon="7.890291">
        <ele>604.288588</ele>
        <time>2021-11-07T11:58:47.107Z</time>
      </trkpt>
      <trkpt lat="47.501468" lon="7.889658">
        <ele>600.294060</ele>
        <time>2021-11-07T11:58:50.814Z</time>
      </trkpt>
      <trkpt lat="47.501460" lon="7.889185">
        <ele>597.313776</ele>
        <time>2021-11-07T11:58:53.580Z</time>
      </trkpt>
      <trkpt lat="47.501458" lon="7.889097">
        <ele>596.759165</ele>
        <time>2021-11-07T11:58:54.081Z</time>
      </trkpt>
      <trkpt lat="47.501288" lon="7.887983">
        <ele>590.333778</ele>
        <time>2021-11-07T11:59:00.817Z</time>
      </trkpt>
      <trkpt lat="47.501229" lon="7.887595">
        <ele>588.324693</ele>
        <time>2021-11-07T11:59:03.204Z</time>
      </trkpt>
      <trkpt lat="47.501173" lon="7.887242">
        <ele>586.492948</ele>
        <time>2021-11-07T11:59:05.365Z</time>
      </trkpt>
      <trkpt lat="47.501169" lon="7.887028">
        <ele>585.411476</ele>
        <time>2021-11-07T11:59:06.636Z</time>
      </trkpt>
      <trkpt lat="47.501203" lon="7.886606">
        <ele>583.264563</ele>
        <time>2021-11-07T11:59:09.340Z</time>
      </trkpt>
      <trkpt lat="47.501217" lon="7.886443">
        <ele>582.434513</ele>
        <time>2021-11-07T11:59:10.367Z</time>
      </trkpt>
      <trkpt lat="47.501340" lon="7.885347">
        <ele>577.014908</ele>
        <time>2021-11-07T11:59:17.180Z</time>
      </trkpt>
      <trkpt lat="47.501548" lon="7.884312">
        <ele>571.891499</ele>
        <time>2021-11-07T11:59:23.713Z</time>
      </trkpt>
      <trkpt lat="47.501604" lon="7.883848">
        <ele>569.655121</ele>
        <time>2021-11-07T11:59:26.562Z</time>
      </trkpt>
      <trkpt lat="47.501649" lon="7.883525">
        <ele>568.090349</ele>
        <time>2021-11-07T11:59:28.549Z</time>
      </trkpt>
      <trkpt lat="47.501738" lon="7.883219">
        <ele>566.342768</ele>
        <time>2021-11-07T11:59:30.583Z</time>
      </trkpt>
      <trkpt lat="47.501771" lon="7.883120">
        <ele>565.716678</ele>
        <time>2021-11-07T11:59:31.236Z</time>
      </trkpt>
      <trkpt lat="47.501864" lon="7.882799">
        <ele>563.735828</ele>
        <time>2021-11-07T11:59:33.350Z</time>
      </trkpt>
      <trkpt lat="47.502265" lon="7.881790">
        <ele>557.096711</ele>
        <time>2021-11-07T11:59:40.274Z</time>
      </trkpt>
      <trkpt lat="47.502443" lon="7.881187">
        <ele>553.364705</ele>
        <time>2021-11-07T11:59:44.180Z</time>
      </trkpt>
      <trkpt lat="47.502801" lon="7.880243">
        <ele>546.278012</ele>
        <time>2021-11-07T11:59:50.499Z</time>
      </trkpt>
      <trkpt lat="47.502838" lon="7.880150">
        <ele>545.550879</ele>
        <time>2021-11-07T11:59:51.113Z</time>
      </trkpt>
      <trkpt lat="47.502894" lon="7.880014">
        <ele>544.477844</ele>
        <time>2021-11-07T11:59:52.036Z</time>
      </trkpt>
      <trkpt lat="47.503005" lon="7.879648">
        <ele>541.774980</ele>
        <time>2021-11-07T11:59:54.366Z</time>
      </trkpt>
      <trkpt lat="47.503076" lon="7.878993">
        <ele>537.305736</ele>
        <time>2021-11-07T11:59:58.215Z</time>
      </trkpt>
      <trkpt lat="47.503079" lon="7.878798">
        <ele>535.991662</ele>
        <time>2021-11-07T11:59:59.351Z</time>
      </trkpt>
      <trkpt lat="47.503165" lon="7.878375">
        <ele>533.107909</ele>
        <time>2021-11-07T12:00:01.898Z</time>
      </trkpt>
      <trkpt lat="47.503455" lon="7.877034">
        <ele>524.289429</ele>
        <time>2021-11-07T12:00:10.147Z</time>
      </trkpt>
      <trkpt lat="47.503619" lon="7.876694">
        <ele>521.672930</ele>
        <time>2021-11-07T12:00:12.559Z</time>
      </trkpt>
      <trkpt lat="47.504101" lon="7.875980">
        <ele>516.392413</ele>
        <time>2021-11-07T12:00:18.563Z</time>
      </trkpt>
      <trkpt lat="47.504368" lon="7.875216">
        <ele>513.443165</ele>
        <time>2021-11-07T12:00:23.846Z</time>
      </trkpt>
      <trkpt lat="47.504456" lon="7.874954">
        <ele>512.439957</ele>
        <time>2021-11-07T12:00:25.626Z</time>
      </trkpt>
      <trkpt lat="47.504138" lon="7.874810">
        <ele>510.752143</ele>
        <time>2021-11-07T12:00:28.909Z</time>
      </trkpt>
      <trkpt lat="47.503780" lon="7.874762">
        <ele>508.927701</ele>
        <time>2021-11-07T12:00:32.715Z</time>
      </trkpt>
      <trkpt lat="47.503258" lon="7.874914">
        <ele>509.683470</ele>
        <time>2021-11-07T12:00:39.746Z</time>
      </trkpt>
      <trkpt lat="47.502952" lon="7.875026">
        <ele>510.492138</ele>
        <time>2021-11-07T12:00:44.858Z</time>
      </trkpt>
      <trkpt lat="47.502842" lon="7.875099">
        <ele>510.801400</ele>
        <time>2021-11-07T12:00:49.034Z</time>
      </trkpt>
      <trkpt lat="47.502590" lon="7.875352">
        <ele>511.582561</ele>
        <time>2021-11-07T12:00:57.289Z</time>
      </trkpt>
      <trkpt lat="47.501223" lon="7.877550">
        <ele>522.275796</ele>
        <time>2021-11-07T12:02:16.159Z</time>
      </trkpt>
      <trkpt lat="47.500871" lon="7.877817">
        <ele>524.869727</ele>
        <time>2021-11-07T12:02:33.795Z</time>
      </trkpt>
      <trkpt lat="47.500646" lon="7.877870">
        <ele>527.207976</ele>
        <time>2021-11-07T12:02:44.572Z</time>
      </trkpt>
      <trkpt lat="47.500435" lon="7.877886">
        <ele>529.376324</ele>
        <time>2021-11-07T12:02:53.394Z</time>
      </trkpt>
      <trkpt lat="47.500406" lon="7.877881">
        <ele>529.675965</ele>
        <time>2021-11-07T12:02:54.528Z</time>
      </trkpt>
      <trkpt lat="47.500301" lon="7.877860">
        <ele>530.763380</ele>
        <time>2021-11-07T12:03:00.468Z</time>
      </trkpt>
      <trkpt lat="47.499321" lon="7.877227">
        <ele>541.737119</ele>
        <time>2021-11-07T12:04:05.665Z</time>
      </trkpt>
      <trkpt lat="47.499098" lon="7.877132">
        <ele>544.399037</ele>
        <time>2021-11-07T12:04:19.148Z</time>
      </trkpt>
      <trkpt lat="47.498805" lon="7.877120">
        <ele>548.362576</ele>
        <time>2021-11-07T12:04:37.843Z</time>
      </trkpt>
      <trkpt lat="47.498728" lon="7.877133">
        <ele>549.410541</ele>
        <time>2021-11-07T12:04:43.906Z</time>
      </trkpt>
      <trkpt lat="47.498622" lon="7.877161">
        <ele>550.866547</ele>
        <time>2021-11-07T12:04:51.654Z</time>
      </trkpt>
      <trkpt lat="47.498351" lon="7.877306">
        <ele>554.763161</ele>
        <time>2021-11-07T12:05:09.372Z</time>
      </trkpt>
      <trkpt lat="47.498148" lon="7.877525">
        <ele>558.159939</ele>
        <time>2021-11-07T12:05:24.218Z</time>
      </trkpt>
      <trkpt lat="47.497693" lon="7.878386">
        <ele>568.094238</ele>
        <time>2021-11-07T12:06:23.673Z</time>
      </trkpt>
      <trkpt lat="47.497250" lon="7.878931">
        <ele>575.194138</ele>
        <time>2021-11-07T12:07:08.090Z</time>
      </trkpt>
      <trkpt lat="47.497148" lon="7.879174">
        <ele>577.576384</ele>
        <time>2021-11-07T12:07:18.849Z</time>
      </trkpt>
      <trkpt lat="47.497087" lon="7.879380">
        <ele>579.449321</ele>
        <time>2021-11-07T12:07:30.857Z</time>
      </trkpt>
      <trkpt lat="47.497046" lon="7.879652">
        <ele>581.770019</ele>
        <time>2021-11-07T12:07:41.040Z</time>
      </trkpt>
      <trkpt lat="47.496934" lon="7.880335">
        <ele>587.622663</ele>
        <time>2021-11-07T12:08:09.032Z</time>
      </trkpt>
      <trkpt lat="47.496817" lon="7.881208">
        <ele>590.964787</ele>
        <time>2021-11-07T12:08:37.424Z</time>
      </trkpt>
      <trkpt lat="47.496775" lon="7.881742">
        <ele>592.009425</ele>
        <time>2021-11-07T12:08:51.439Z</time>
      </trkpt>
      <trkpt lat="47.496758" lon="7.882064">
        <ele>592.637020</ele>
        <time>2021-11-07T12:08:55.375Z</time>
      </trkpt>
      <trkpt lat="47.496733" lon="7.882493">
        <ele>593.473718</ele>
        <time>2021-11-07T12:09:00.353Z</time>
      </trkpt>
      <trkpt lat="47.496732" lon="7.882629">
        <ele>593.738000</ele>
        <time>2021-11-07T12:09:03.133Z</time>
      </trkpt>
      <trkpt lat="47.496724" lon="7.882743">
        <ele>593.960709</ele>
        <time>2021-11-07T12:09:04.090Z</time>
      </trkpt>
      <trkpt lat="47.496734" lon="7.882969">
        <ele>594.400797</ele>
        <time>2021-11-07T12:09:06.243Z</time>
      </trkpt>
      <trkpt lat="47.496687" lon="7.883397">
        <ele>594.259381</ele>
        <time>2021-11-07T12:09:09.279Z</time>
      </trkpt>
      <trkpt lat="47.496652" lon="7.883465">
        <ele>593.950615</ele>
        <time>2021-11-07T12:09:10.109Z</time>
      </trkpt>
      <trkpt lat="47.496581" lon="7.883536">
        <ele>593.492534</ele>
        <time>2021-11-07T12:09:10.878Z</time>
      </trkpt>
      <trkpt lat="47.496049" lon="7.883820">
        <ele>590.469105</ele>
        <time>2021-11-07T12:09:16.409Z</time>
      </trkpt>
      <trkpt lat="47.495454" lon="7.883705">
        <ele>587.261208</ele>
        <time>2021-11-07T12:09:21.844Z</time>
      </trkpt>
      <trkpt lat="47.494764" lon="7.884042">
        <ele>582.009729</ele>
        <time>2021-11-07T12:09:28.279Z</time>
      </trkpt>
      <trkpt lat="47.494367" lon="7.884261">
        <ele>578.120842</ele>
        <time>2021-11-07T12:09:32.020Z</time>
      </trkpt>
      <trkpt lat="47.494186" lon="7.884344">
        <ele>576.381553</ele>
        <time>2021-11-07T12:09:33.652Z</time>
      </trkpt>
      <trkpt lat="47.493814" lon="7.884597">
        <ele>572.623759</ele>
        <time>2021-11-07T12:09:37.180Z</time>
      </trkpt>
      <trkpt lat="47.493304" lon="7.885334">
        <ele>565.674920</ele>
        <time>2021-11-07T12:09:43.306Z</time>
      </trkpt>
      <trkpt lat="47.493060" lon="7.885635">
        <ele>562.319497</ele>
        <time>2021-11-07T12:09:45.985Z</time>
      </trkpt>
      <trkpt lat="47.492927" lon="7.885817">
        <ele>560.406046</ele>
        <time>2021-11-07T12:09:47.516Z</time>
      </trkpt>
      <trkpt lat="47.492348" lon="7.886838">
        <ele>550.892135</ele>
        <time>2021-11-07T12:09:55.265Z</time>
      </trkpt>
      <trkpt lat="47.492288" lon="7.886983">
        <ele>549.696438</ele>
        <time>2021-11-07T12:09:56.233Z</time>
      </trkpt>
      <trkpt lat="47.492246" lon="7.887099">
        <ele>548.932715</ele>
        <time>2021-11-07T12:09:57.005Z</time>
      </trkpt>
      <trkpt lat="47.492175" lon="7.887289">
        <ele>547.672725</ele>
        <time>2021-11-07T12:09:58.268Z</time>
      </trkpt>
      <trkpt lat="47.491962" lon="7.888038">
        <ele>542.956856</ele>
        <time>2021-11-07T12:10:03.066Z</time>
      </trkpt>
      <trkpt lat="47.491769" lon="7.889166">
        <ele>536.204219</ele>
        <time>2021-11-07T12:10:09.982Z</time>
      </trkpt>
      <trkpt lat="47.491698" lon="7.889463">
        <ele>534.375968</ele>
        <time>2021-11-07T12:10:11.834Z</time>
      </trkpt>
      <trkpt lat="47.491657" lon="7.889588">
        <ele>533.590272</ele>
        <time>2021-11-07T12:10:12.727Z</time>
      </trkpt>
      <trkpt lat="47.491390" lon="7.890064">
        <ele>530.098111</ele>
        <time>2021-11-07T12:10:16.537Z</time>
      </trkpt>
      <trkpt lat="47.491152" lon="7.890269">
        <ele>527.797585</ele>
        <time>2021-11-07T12:10:19.007Z</time>
      </trkpt>
      <trkpt lat="47.491016" lon="7.890331">
        <ele>526.608737</ele>
        <time>2021-11-07T12:10:20.290Z</time>
      </trkpt>
      <trkpt lat="47.490978" lon="7.890353">
        <ele>526.267853</ele>
        <time>2021-11-07T12:10:20.626Z</time>
      </trkpt>
      <trkpt lat="47.490438" lon="7.890555">
        <ele>521.614731</ele>
        <time>2021-11-07T12:10:25.500Z</time>
      </trkpt>
      <trkpt lat="47.489665" lon="7.890612">
        <ele>515.340080</ele>
        <time>2021-11-07T12:10:32.169Z</time>
      </trkpt>
      <trkpt lat="47.489379" lon="7.890627">
        <ele>513.059354</ele>
        <time>2021-11-07T12:10:34.615Z</time>
      </trkpt>
      <trkpt lat="47.488950" lon="7.890650">
        <ele>509.638168</ele>
        <time>2021-11-07T12:10:38.432Z</time>
      </trkpt>
      <trkpt lat="47.488715" lon="7.890673">
        <ele>507.761230</ele>
        <time>2021-11-07T12:10:40.590Z</time>
      </trkpt>
      <trkpt lat="47.488680" lon="7.890697">
        <ele>507.453806</ele>
        <time>2021-11-07T12:10:40.914Z</time>
      </trkpt>
      <trkpt lat="47.488595" lon="7.890769">
        <ele>506.673272</ele>
        <time>2021-11-07T12:10:41.888Z</time>
      </trkpt>
      <trkpt lat="47.488499" lon="7.890970">
        <ele>505.347735</ele>
        <time>2021-11-07T12:10:43.457Z</time>
      </trkpt>
      <trkpt lat="47.488495" lon="7.891186">
        <ele>504.635874</ele>
        <time>2021-11-07T12:10:44.760Z</time>
      </trkpt>
      <trkpt lat="47.488799" lon="7.891910">
        <ele>502.697574</ele>
        <time>2021-11-07T12:10:50.445Z</time>
      </trkpt>
      <trkpt lat="47.488835" lon="7.892066">
        <ele>502.322721</ele>
        <time>2021-11-07T12:10:51.434Z</time>
      </trkpt>
      <trkpt lat="47.488809" lon="7.892200">
        <ele>502.005698</ele>
        <time>2021-11-07T12:10:52.636Z</time>
      </trkpt>
      <trkpt lat="47.488707" lon="7.892577">
        <ele>501.082254</ele>
        <time>2021-11-07T12:10:55.347Z</time>
      </trkpt>
      <trkpt lat="47.488649" lon="7.892618">
        <ele>500.865950</ele>
        <time>2021-11-07T12:10:56.593Z</time>
      </trkpt>
      <trkpt lat="47.488571" lon="7.892671">
        <ele>500.577121</ele>
        <time>2021-11-07T12:10:57.768Z</time>
      </trkpt>
      <trkpt lat="47.488402" lon="7.893037">
        <ele>499.569098</ele>
        <time>2021-11-07T12:11:01.169Z</time>
      </trkpt>
      <trkpt lat="47.488323" lon="7.893133">
        <ele>499.225105</ele>
        <time>2021-11-07T12:11:02.637Z</time>
      </trkpt>
      <trkpt lat="47.488250" lon="7.893055">
        <ele>498.922108</ele>
        <time>2021-11-07T12:11:03.494Z</time>
      </trkpt>
      <trkpt lat="47.488168" lon="7.892899">
        <ele>498.569356</ele>
        <time>2021-11-07T12:11:05.331Z</time>
      </trkpt>
      <trkpt lat="47.488137" lon="7.892763">
        <ele>498.314576</ele>
        <time>2021-11-07T12:11:06.600Z</time>
      </trkpt>
      <trkpt lat="47.488084" lon="7.892534">
        <ele>497.884893</ele>
        <time>2021-11-07T12:11:08.223Z</time>
      </trkpt>
      <trkpt lat="47.487680" lon="7.891282">
        <ele>495.422048</ele>
        <time>2021-11-07T12:11:18.382Z</time>
      </trkpt>
      <trkpt lat="47.487518" lon="7.890485">
        <ele>493.839527</ele>
        <time>2021-11-07T12:11:23.811Z</time>
      </trkpt>
      <trkpt lat="47.487490" lon="7.890449">
        <ele>493.700084</ele>
        <time>2021-11-07T12:11:24.168Z</time>
      </trkpt>
      <trkpt lat="47.487367" lon="7.890321">
        <ele>493.134787</ele>
        <time>2021-11-07T12:11:25.654Z</time>
      </trkpt>
      <trkpt lat="47.486940" lon="7.889619">
        <ele>490.735333</ele>
        <time>2021-11-07T12:11:32.120Z</time>
      </trkpt>
      <trkpt lat="47.486763" lon="7.889251">
        <ele>489.587816</ele>
        <time>2021-11-07T12:11:35.256Z</time>
      </trkpt>
      <trkpt lat="47.486746" lon="7.889218">
        <ele>489.482398</ele>
        <time>2021-11-07T12:11:35.496Z</time>
      </trkpt>
      <trkpt lat="47.486185" lon="7.888073">
        <ele>485.568363</ele>
        <time>2021-11-07T12:11:44.735Z</time>
      </trkpt>
      <trkpt lat="47.485991" lon="7.887744">
        <ele>484.227385</ele>
        <time>2021-11-07T12:11:47.550Z</time>
      </trkpt>
      <trkpt lat="47.485842" lon="7.887493">
        <ele>483.201352</ele>
        <time>2021-11-07T12:11:49.652Z</time>
      </trkpt>
      <trkpt lat="47.485824" lon="7.887463">
        <ele>483.078143</ele>
        <time>2021-11-07T12:11:49.909Z</time>
      </trkpt>
      <trkpt lat="47.485730" lon="7.887323">
        <ele>482.472040</ele>
        <time>2021-11-07T12:11:51.172Z</time>
      </trkpt>
      <trkpt lat="47.484923" lon="7.886213">
        <ele>477.809265</ele>
        <time>2021-11-07T12:12:01.785Z</time>
      </trkpt>
      <trkpt lat="47.484859" lon="7.886144">
        <ele>477.518731</ele>
        <time>2021-11-07T12:12:02.515Z</time>
      </trkpt>
      <trkpt lat="47.484724" lon="7.885990">
        <ele>476.893313</ele>
        <time>2021-11-07T12:12:04.202Z</time>
      </trkpt>
      <trkpt lat="47.484124" lon="7.885514">
        <ele>474.395456</ele>
        <time>2021-11-07T12:12:11.058Z</time>
      </trkpt>
      <trkpt lat="47.483644" lon="7.884992">
        <ele>472.336456</ele>
        <time>2021-11-07T12:12:16.992Z</time>
      </trkpt>
      <trkpt lat="47.483551" lon="7.884901">
        <ele>472.044210</ele>
        <time>2021-11-07T12:12:18.136Z</time>
      </trkpt>
      <trkpt lat="47.483495" lon="7.884861">
        <ele>471.881217</ele>
        <time>2021-11-07T12:12:18.745Z</time>
      </trkpt>
      <trkpt lat="47.483344" lon="7.884768">
        <ele>471.452504</ele>
        <time>2021-11-07T12:12:20.527Z</time>
      </trkpt>
      <trkpt lat="47.482795" lon="7.884621">
        <ele>469.990109</ele>
        <time>2021-11-07T12:12:26.353Z</time>
      </trkpt>
      <trkpt lat="47.482343" lon="7.884501">
        <ele>468.786419</ele>
        <time>2021-11-07T12:12:31.281Z</time>
      </trkpt>
      <trkpt lat="47.482094" lon="7.884439">
        <ele>468.124570</ele>
        <time>2021-11-07T12:12:33.906Z</time>
      </trkpt>
      <trkpt lat="47.481625" lon="7.884355">
        <ele>467.203361</ele>
        <time>2021-11-07T12:12:39.218Z</time>
      </trkpt>
      <trkpt lat="47.481202" lon="7.884417">
        <ele>466.424908</ele>
        <time>2021-11-07T12:12:43.949Z</time>
      </trkpt>
      <trkpt lat="47.481022" lon="7.884472">
        <ele>466.088310</ele>
        <time>2021-11-07T12:12:45.899Z</time>
      </trkpt>
      <trkpt lat="47.480931" lon="7.884489">
        <ele>465.920334</ele>
        <time>2021-11-07T12:12:47.028Z</time>
      </trkpt>
      <trkpt lat="47.480537" lon="7.884477">
        <ele>465.198629</ele>
        <time>2021-11-07T12:12:51.416Z</time>
      </trkpt>
      <trkpt lat="47.479813" lon="7.884128">
        <ele>464.342833</ele>
        <time>2021-11-07T12:13:00.219Z</time>
      </trkpt>
      <trkpt lat="47.479273" lon="7.883853">
        <ele>463.967269</ele>
        <time>2021-11-07T12:13:07.207Z</time>
      </trkpt>
      <trkpt lat="47.479105" lon="7.883776">
        <ele>463.851608</ele>
        <time>2021-11-07T12:13:09.458Z</time>
      </trkpt>
      <trkpt lat="47.478811" lon="7.883733">
        <ele>463.657323</ele>
        <time>2021-11-07T12:13:13.400Z</time>
      </trkpt>
      <trkpt lat="47.478579" lon="7.883777">
        <ele>463.503506</ele>
        <time>2021-11-07T12:13:16.633Z</time>
      </trkpt>
      <trkpt lat="47.477249" lon="7.884423">
        <ele>466.380066</ele>
        <time>2021-11-07T12:13:45.138Z</time>
      </trkpt>
      <trkpt lat="47.476108" lon="7.884690">
        <ele>470.897869</ele>
        <time>2021-11-07T12:14:24.404Z</time>
      </trkpt>
      <trkpt lat="47.475795" lon="7.884698">
        <ele>472.482810</ele>
        <time>2021-11-07T12:14:36.268Z</time>
      </trkpt>
      <trkpt lat="47.475660" lon="7.884681">
        <ele>473.168780</ele>
        <time>2021-11-07T12:14:41.304Z</time>
      </trkpt>
      <trkpt lat="47.475395" lon="7.884643">
        <ele>474.516750</ele>
        <time>2021-11-07T12:14:51.820Z</time>
      </trkpt>
      <trkpt lat="47.474825" lon="7.884590">
        <ele>477.088077</ele>
        <time>2021-11-07T12:15:11.506Z</time>
      </trkpt>
      <trkpt lat="47.474703" lon="7.884534">
        <ele>477.507845</ele>
        <time>2021-11-07T12:15:17.053Z</time>
      </trkpt>
      <trkpt lat="47.474508" lon="7.884402">
        <ele>478.212544</ele>
        <time>2021-11-07T12:15:23.423Z</time>
      </trkpt>
      <trkpt lat="47.473290" lon="7.883592">
        <ele>482.280986</ele>
        <time>2021-11-07T12:15:59.182Z</time>
      </trkpt>
      <trkpt lat="47.473082" lon="7.883408">
        <ele>481.767158</ele>
        <time>2021-11-07T12:16:02.894Z</time>
      </trkpt>
      <trkpt lat="47.472670" lon="7.883027">
        <ele>480.737017</ele>
        <time>2021-11-07T12:16:09.614Z</time>
      </trkpt>
      <trkpt lat="47.471932" lon="7.882355">
        <ele>478.899668</ele>
        <time>2021-11-07T12:16:18.799Z</time>
      </trkpt>
      <trkpt lat="47.471600" lon="7.881776">
        <ele>474.133446</ele>
        <time>2021-11-07T12:16:23.281Z</time>
      </trkpt>
      <trkpt lat="47.471472" lon="7.881494">
        <ele>471.355234</ele>
        <time>2021-11-07T12:16:25.291Z</time>
      </trkpt>
      <trkpt lat="47.471451" lon="7.881438">
        <ele>470.831452</ele>
        <time>2021-11-07T12:16:25.675Z</time>
      </trkpt>
      <trkpt lat="47.471376" lon="7.881235">
        <ele>468.939305</ele>
        <time>2021-11-07T12:16:26.994Z</time>
      </trkpt>
      <trkpt lat="47.471173" lon="7.880721">
        <ele>464.070344</ele>
        <time>2021-11-07T12:16:30.364Z</time>
      </trkpt>
      <trkpt lat="47.471143" lon="7.880602">
        <ele>463.031557</ele>
        <time>2021-11-07T12:16:31.068Z</time>
      </trkpt>
      <trkpt lat="47.471122" lon="7.880528">
        <ele>462.375137</ele>
        <time>2021-11-07T12:16:31.519Z</time>
      </trkpt>
      <trkpt lat="47.471056" lon="7.880271">
        <ele>460.126545</ele>
        <time>2021-11-07T12:16:33.074Z</time>
      </trkpt>
      <trkpt lat="47.470688" lon="7.879298">
        <ele>450.275641</ele>
        <time>2021-11-07T12:16:39.307Z</time>
      </trkpt>
      <trkpt lat="47.470641" lon="7.879203">
        <ele>449.191744</ele>
        <time>2021-11-07T12:16:39.962Z</time>
      </trkpt>
      <trkpt lat="47.470626" lon="7.879175">
        <ele>448.862808</ele>
        <time>2021-11-07T12:16:40.159Z</time>
      </trkpt>
      <trkpt lat="47.470496" lon="7.878920">
        <ele>445.922187</ele>
        <time>2021-11-07T12:16:41.988Z</time>
      </trkpt>
      <trkpt lat="47.470372" lon="7.878664">
        <ele>443.022554</ele>
        <time>2021-11-07T12:16:43.733Z</time>
      </trkpt>
      <trkpt lat="47.470277" lon="7.878469">
        <ele>440.809500</ele>
        <time>2021-11-07T12:16:45.116Z</time>
      </trkpt>
      <trkpt lat="47.470106" lon="7.878102">
        <ele>436.705582</ele>
        <time>2021-11-07T12:16:47.670Z</time>
      </trkpt>
      <trkpt lat="47.469549" lon="7.877073">
        <ele>429.348066</ele>
        <time>2021-11-07T12:16:55.478Z</time>
      </trkpt>
      <trkpt lat="47.469512" lon="7.877020">
        <ele>429.078480</ele>
        <time>2021-11-07T12:16:55.923Z</time>
      </trkpt>
      <trkpt lat="47.469475" lon="7.876966">
        <ele>428.806420</ele>
        <time>2021-11-07T12:16:56.417Z</time>
      </trkpt>
      <trkpt lat="47.469413" lon="7.876875">
        <ele>428.349259</ele>
        <time>2021-11-07T12:16:57.291Z</time>
      </trkpt>
      <trkpt lat="47.469384" lon="7.876836">
        <ele>428.144113</ele>
        <time>2021-11-07T12:16:57.713Z</time>
      </trkpt>
      <trkpt lat="47.469354" lon="7.876797">
        <ele>427.935064</ele>
        <time>2021-11-07T12:16:58.113Z</time>
      </trkpt>
      <trkpt lat="47.469265" lon="7.876688">
        <ele>427.330272</ele>
        <time>2021-11-07T12:16:59.219Z</time>
      </trkpt>
      <trkpt lat="47.468740" lon="7.876159">
        <ele>424.005315</ele>
        <time>2021-11-07T12:17:05.783Z</time>
      </trkpt>
      <trkpt lat="47.468698" lon="7.876140">
        <ele>423.775422</ele>
        <time>2021-11-07T12:17:06.222Z</time>
      </trkpt>
      <trkpt lat="47.468806" lon="7.875696">
        <ele>422.576466</ele>
        <time>2021-11-07T12:17:09.555Z</time>
      </trkpt>
      <trkpt lat="47.468925" lon="7.875205">
        <ele>421.802045</ele>
        <time>2021-11-07T12:17:13.265Z</time>
      </trkpt>
      <trkpt lat="47.468989" lon="7.874967">
        <ele>421.421757</ele>
        <time>2021-11-07T12:17:15.066Z</time>
      </trkpt>
      <trkpt lat="47.469050" lon="7.874738">
        <ele>421.056318</ele>
        <time>2021-11-07T12:17:17.038Z</time>
      </trkpt>
      <trkpt lat="47.469068" lon="7.874689">
        <ele>420.973520</ele>
        <time>2021-11-07T12:17:17.447Z</time>
      </trkpt>
      <trkpt lat="47.469097" lon="7.874606">
        <ele>420.834804</ele>
        <time>2021-11-07T12:17:18.098Z</time>
      </trkpt>
      <trkpt lat="47.469136" lon="7.874516">
        <ele>420.676085</ele>
        <time>2021-11-07T12:17:18.880Z</time>
      </trkpt>
      <trkpt lat="47.469173" lon="7.874432">
        <ele>420.527232</ele>
        <time>2021-11-07T12:17:19.662Z</time>
      </trkpt>
      <trkpt lat="47.469224" lon="7.874328">
        <ele>420.336474</ele>
        <time>2021-11-07T12:17:20.694Z</time>
      </trkpt>
      <trkpt lat="47.469422" lon="7.873965">
        <ele>419.643965</ele>
        <time>2021-11-07T12:17:24.125Z</time>
      </trkpt>
      <trkpt lat="47.469489" lon="7.873809">
        <ele>419.369562</ele>
        <time>2021-11-07T12:17:25.530Z</time>
      </trkpt>
      <trkpt lat="47.469626" lon="7.873477">
        <ele>418.827432</ele>
        <time>2021-11-07T12:17:28.427Z</time>
      </trkpt>
      <trkpt lat="47.469682" lon="7.873326">
        <ele>418.623609</ele>
        <time>2021-11-07T12:17:29.754Z</time>
      </trkpt>
      <trkpt lat="47.469710" lon="7.873249">
        <ele>418.520138</ele>
        <time>2021-11-07T12:17:30.346Z</time>
      </trkpt>
      <trkpt lat="47.469969" lon="7.872276">
        <ele>417.282617</ele>
        <time>2021-11-07T12:17:38.292Z</time>
      </trkpt>
      <trkpt lat="47.470156" lon="7.871491">
        <ele>416.297644</ele>
        <time>2021-11-07T12:17:44.634Z</time>
      </trkpt>
      <trkpt lat="47.470217" lon="7.871214">
        <ele>415.952884</ele>
        <time>2021-11-07T12:17:46.795Z</time>
      </trkpt>
      <trkpt lat="47.470245" lon="7.871088">
        <ele>415.804681</ele>
        <time>2021-11-07T12:17:47.809Z</time>
      </trkpt>
      <trkpt lat="47.470316" lon="7.870753">
        <ele>415.557635</ele>
        <time>2021-11-07T12:17:50.629Z</time>
      </trkpt>
      <trkpt lat="47.470333" lon="7.870669">
        <ele>415.495935</ele>
        <time>2021-11-07T12:17:51.273Z</time>
      </trkpt>
      <trkpt lat="47.470350" lon="7.870570">
        <ele>415.424058</ele>
        <time>2021-11-07T12:17:52.066Z</time>
      </trkpt>
      <trkpt lat="47.470379" lon="7.870338">
        <ele>415.258039</ele>
        <time>2021-11-07T12:17:54.010Z</time>
      </trkpt>
      <trkpt lat="47.470397" lon="7.870147">
        <ele>415.122337</ele>
        <time>2021-11-07T12:17:56.142Z</time>
      </trkpt>
      <trkpt lat="47.470378" lon="7.869626">
        <ele>414.755191</ele>
        <time>2021-11-07T12:18:02.151Z</time>
      </trkpt>
      <trkpt lat="47.470309" lon="7.869201">
        <ele>414.447625</ele>
        <time>2021-11-07T12:18:07.440Z</time>
      </trkpt>
      <trkpt lat="47.470234" lon="7.868884">
        <ele>414.211292</ele>
        <time>2021-11-07T12:18:11.495Z</time>
      </trkpt>
      <trkpt lat="47.470127" lon="7.868484">
        <ele>413.916693</ele>
        <time>2021-11-07T12:18:16.949Z</time>
      </trkpt>
      <trkpt lat="47.469915" lon="7.867494">
        <ele>413.347882</ele>
        <time>2021-11-07T12:18:30.117Z</time>
      </trkpt>
      <trkpt lat="47.469808" lon="7.866690">
        <ele>412.899052</ele>
        <time>2021-11-07T12:18:39.840Z</time>
      </trkpt>
      <trkpt lat="47.469764" lon="7.866452">
        <ele>412.763904</ele>
        <time>2021-11-07T12:18:42.848Z</time>
      </trkpt>
      <trkpt lat="47.469710" lon="7.866208">
        <ele>412.623277</ele>
        <time>2021-11-07T12:18:45.813Z</time>
      </trkpt>
      <trkpt lat="47.469629" lon="7.865918">
        <ele>412.412597</ele>
        <time>2021-11-07T12:18:49.560Z</time>
      </trkpt>
      <trkpt lat="47.469305" lon="7.864692">
        <ele>410.921927</ele>
        <time>2021-11-07T12:19:03.932Z</time>
      </trkpt>
      <trkpt lat="47.469011" lon="7.863405">
        <ele>409.389611</ele>
        <time>2021-11-07T12:19:18.634Z</time>
      </trkpt>
      <trkpt lat="47.468986" lon="7.863323">
        <ele>409.294544</ele>
        <time>2021-11-07T12:19:19.490Z</time>
      </trkpt>
      <trkpt lat="47.468943" lon="7.863195">
        <ele>409.143486</ele>
        <time>2021-11-07T12:19:21.047Z</time>
      </trkpt>
      <trkpt lat="47.468859" lon="7.862978">
        <ele>408.879214</ele>
        <time>2021-11-07T12:19:23.818Z</time>
      </trkpt>
      <trkpt lat="47.468825" lon="7.862900">
        <ele>408.781129</ele>
        <time>2021-11-07T12:19:24.770Z</time>
      </trkpt>
      <trkpt lat="47.468543" lon="7.862357">
        <ele>408.057464</ele>
        <time>2021-11-07T12:19:32.162Z</time>
      </trkpt>
      <trkpt lat="47.468224" lon="7.861805">
        <ele>407.289966</ele>
        <time>2021-11-07T12:19:40.329Z</time>
      </trkpt>
      <trkpt lat="47.467944" lon="7.861300">
        <ele>406.624031</ele>
        <time>2021-11-07T12:19:47.718Z</time>
      </trkpt>
      <trkpt lat="47.467794" lon="7.861036">
        <ele>406.400376</ele>
        <time>2021-11-07T12:19:51.832Z</time>
      </trkpt>
      <trkpt lat="47.467266" lon="7.860107">
        <ele>405.613249</ele>
        <time>2021-11-07T12:20:06.459Z</time>
      </trkpt>
      <trkpt lat="47.467047" lon="7.859682">
        <ele>405.266677</ele>
        <time>2021-11-07T12:20:12.660Z</time>
      </trkpt>
      <trkpt lat="47.466922" lon="7.859398">
        <ele>405.046894</ele>
        <time>2021-11-07T12:20:16.610Z</time>
      </trkpt>
      <trkpt lat="47.466824" lon="7.859137">
        <ele>404.822737</ele>
        <time>2021-11-07T12:20:20.339Z</time>
      </trkpt>
      <trkpt lat="47.466673" lon="7.858620">
        <ele>404.324529</ele>
        <time>2021-11-07T12:20:26.931Z</time>
      </trkpt>
      <trkpt lat="47.466576" lon="7.858236">
        <ele>403.961893</ele>
        <time>2021-11-07T12:20:31.646Z</time>
      </trkpt>
      <trkpt lat="47.466518" lon="7.858022">
        <ele>403.757936</ele>
        <time>2021-11-07T12:20:33.448Z</time>
      </trkpt>
      <trkpt lat="47.466347" lon="7.856973">
        <ele>402.803366</ele>
        <time>2021-11-07T12:20:41.882Z</time>
      </trkpt>
      <trkpt lat="47.466344" lon="7.856945">
        <ele>402.778288</ele>
        <time>2021-11-07T12:20:42.063Z</time>
      </trkpt>
      <trkpt lat="47.466322" lon="7.856655">
        <ele>402.504762</ele>
        <time>2021-11-07T12:20:44.429Z</time>
      </trkpt>
      <trkpt lat="47.466310" lon="7.856541">
        <ele>402.377930</ele>
        <time>2021-11-07T12:20:45.303Z</time>
      </trkpt>
      <trkpt lat="47.466334" lon="7.856525">
        <ele>402.335123</ele>
        <time>2021-11-07T12:20:45.612Z</time>
      </trkpt>
      <trkpt lat="47.466353" lon="7.856496">
        <ele>402.290727</ele>
        <time>2021-11-07T12:20:45.921Z</time>
      </trkpt>
      <trkpt lat="47.466361" lon="7.856459">
        <ele>402.248023</ele>
        <time>2021-11-07T12:20:46.188Z</time>
      </trkpt>
      <trkpt lat="47.466359" lon="7.856420">
        <ele>402.205027</ele>
        <time>2021-11-07T12:20:46.480Z</time>
      </trkpt>
      <trkpt lat="47.466324" lon="7.856362">
        <ele>402.119559</ele>
        <time>2021-11-07T12:20:47.117Z</time>
      </trkpt>
      <trkpt lat="47.466298" lon="7.856354">
        <ele>402.076374</ele>
        <time>2021-11-07T12:20:47.428Z</time>
      </trkpt>
      <trkpt lat="47.466295" lon="7.856234">
        <ele>401.944367</ele>
        <time>2021-11-07T12:20:48.348Z</time>
      </trkpt>
      <trkpt lat="47.466298" lon="7.855895">
        <ele>401.571668</ele>
        <time>2021-11-07T12:20:50.858Z</time>
      </trkpt>
      <trkpt lat="47.466324" lon="7.855062">
        <ele>400.654965</ele>
        <time>2021-11-07T12:20:57.236Z</time>
      </trkpt>
      <trkpt lat="47.466332" lon="7.854775">
        <ele>400.339194</ele>
        <time>2021-11-07T12:20:59.415Z</time>
      </trkpt>
      <trkpt lat="47.466338" lon="7.854554">
        <ele>400.096050</ele>
        <time>2021-11-07T12:21:01.101Z</time>
      </trkpt>
      <trkpt lat="47.466331" lon="7.853936">
        <ele>399.478264</ele>
        <time>2021-11-07T12:21:05.941Z</time>
      </trkpt>
      <trkpt lat="47.466256" lon="7.853287">
        <ele>398.938916</ele>
        <time>2021-11-07T12:21:11.202Z</time>
      </trkpt>
      <trkpt lat="47.465906" lon="7.851776">
        <ele>397.630514</ele>
        <time>2021-11-07T12:21:24.192Z</time>
      </trkpt>
      <trkpt lat="47.465871" lon="7.851620">
        <ele>397.495870</ele>
        <time>2021-11-07T12:21:25.507Z</time>
      </trkpt>
      <trkpt lat="47.465896" lon="7.851603">
        <ele>397.462618</ele>
        <time>2021-11-07T12:21:25.835Z</time>
      </trkpt>
      <trkpt lat="47.465931" lon="7.851497">
        <ele>397.366502</ele>
        <time>2021-11-07T12:21:26.827Z</time>
      </trkpt>
      <trkpt lat="47.465925" lon="7.851458">
        <ele>397.333913</ele>
        <time>2021-11-07T12:21:27.150Z</time>
      </trkpt>
      <trkpt lat="47.465914" lon="7.851427">
        <ele>397.305388</ele>
        <time>2021-11-07T12:21:27.434Z</time>
      </trkpt>
      <trkpt lat="47.465853" lon="7.851380">
        <ele>397.222493</ele>
        <time>2021-11-07T12:21:28.283Z</time>
      </trkpt>
      <trkpt lat="47.465829" lon="7.851383">
        <ele>397.193465</ele>
        <time>2021-11-07T12:21:28.569Z</time>
      </trkpt>
      <trkpt lat="47.465714" lon="7.850917">
        <ele>396.789274</ele>
        <time>2021-11-07T12:21:32.635Z</time>
      </trkpt>
      <trkpt lat="47.465620" lon="7.850585">
        <ele>396.496004</ele>
        <time>2021-11-07T12:21:35.587Z</time>
      </trkpt>
      <trkpt lat="47.465558" lon="7.850405">
        <ele>396.331405</ele>
        <time>2021-11-07T12:21:37.257Z</time>
      </trkpt>
      <trkpt lat="47.465348" lon="7.849875">
        <ele>395.830869</ele>
        <time>2021-11-07T12:21:42.152Z</time>
      </trkpt>
      <trkpt lat="47.465152" lon="7.849351">
        <ele>395.342931</ele>
        <time>2021-11-07T12:21:46.866Z</time>
      </trkpt>
      <trkpt lat="47.464952" lon="7.848443">
        <ele>394.511428</ele>
        <time>2021-11-07T12:21:54.356Z</time>
      </trkpt>
      <trkpt lat="47.464909" lon="7.848219">
        <ele>394.308130</ele>
        <time>2021-11-07T12:21:56.201Z</time>
      </trkpt>
      <trkpt lat="47.464850" lon="7.847870">
        <ele>393.994046</ele>
        <time>2021-11-07T12:21:59.002Z</time>
      </trkpt>
      <trkpt lat="47.464820" lon="7.847644">
        <ele>393.792965</ele>
        <time>2021-11-07T12:22:00.913Z</time>
      </trkpt>
      <trkpt lat="47.464784" lon="7.847333">
        <ele>393.517489</ele>
        <time>2021-11-07T12:22:03.420Z</time>
      </trkpt>
      <trkpt lat="47.464771" lon="7.847028">
        <ele>393.250674</ele>
        <time>2021-11-07T12:22:05.917Z</time>
      </trkpt>
      <trkpt lat="47.464737" lon="7.846119">
        <ele>392.660920</ele>
        <time>2021-11-07T12:22:13.230Z</time>
      </trkpt>
      <trkpt lat="47.464585" lon="7.844988">
        <ele>392.041748</ele>
        <time>2021-11-07T12:22:23.026Z</time>
      </trkpt>
      <trkpt lat="47.464433" lon="7.844273">
        <ele>391.639296</ele>
        <time>2021-11-07T12:22:29.741Z</time>
      </trkpt>
      <trkpt lat="47.464386" lon="7.844088">
        <ele>391.570369</ele>
        <time>2021-11-07T12:22:31.390Z</time>
      </trkpt>
      <trkpt lat="47.464354" lon="7.843960">
        <ele>391.598848</ele>
        <time>2021-11-07T12:22:32.793Z</time>
      </trkpt>
      <trkpt lat="47.464234" lon="7.843434">
        <ele>391.714699</ele>
        <time>2021-11-07T12:22:37.965Z</time>
      </trkpt>
      <trkpt lat="47.464176" lon="7.843178">
        <ele>391.771044</ele>
        <time>2021-11-07T12:22:40.382Z</time>
      </trkpt>
      <trkpt lat="47.464165" lon="7.843130">
        <ele>391.781621</ele>
        <time>2021-11-07T12:22:40.917Z</time>
      </trkpt>
      <trkpt lat="47.464075" lon="7.842774">
        <ele>391.860938</ele>
        <time>2021-11-07T12:22:45.808Z</time>
      </trkpt>
      <trkpt lat="47.464053" lon="7.842690">
        <ele>391.879737</ele>
        <time>2021-11-07T12:22:46.531Z</time>
      </trkpt>
      <trkpt lat="47.463971" lon="7.842355">
        <ele>391.954089</ele>
        <time>2021-11-07T12:22:51.461Z</time>
      </trkpt>
      <trkpt lat="47.463922" lon="7.842123">
        <ele>392.004813</ele>
        <time>2021-11-07T12:22:53.791Z</time>
      </trkpt>
      <trkpt lat="47.463874" lon="7.841863">
        <ele>392.061059</ele>
        <time>2021-11-07T12:22:57.998Z</time>
      </trkpt>
      <trkpt lat="47.463685" lon="7.841203">
        <ele>392.062265</ele>
        <time>2021-11-07T12:23:06.387Z</time>
      </trkpt>
      <trkpt lat="47.463616" lon="7.840992">
        <ele>392.035154</ele>
        <time>2021-11-07T12:23:09.335Z</time>
      </trkpt>
      <trkpt lat="47.463588" lon="7.840904">
        <ele>392.023905</ele>
        <time>2021-11-07T12:23:10.227Z</time>
      </trkpt>
      <trkpt lat="47.463287" lon="7.840028">
        <ele>391.910245</ele>
        <time>2021-11-07T12:23:18.969Z</time>
      </trkpt>
      <trkpt lat="47.463133" lon="7.839561">
        <ele>391.850145</ele>
        <time>2021-11-07T12:23:23.541Z</time>
      </trkpt>
      <trkpt lat="47.463043" lon="7.839292">
        <ele>391.815429</ele>
        <time>2021-11-07T12:23:25.992Z</time>
      </trkpt>
      <trkpt lat="47.462982" lon="7.839106">
        <ele>391.701325</ele>
        <time>2021-11-07T12:23:28.387Z</time>
      </trkpt>
      <trkpt lat="47.462967" lon="7.839047">
        <ele>391.652756</ele>
        <time>2021-11-07T12:23:28.872Z</time>
      </trkpt>
      <trkpt lat="47.462936" lon="7.838934">
        <ele>391.558792</ele>
        <time>2021-11-07T12:23:29.817Z</time>
      </trkpt>
      <trkpt lat="47.462883" lon="7.838488">
        <ele>391.209871</ele>
        <time>2021-11-07T12:23:33.771Z</time>
      </trkpt>
      <trkpt lat="47.462873" lon="7.838016">
        <ele>390.846006</ele>
        <time>2021-11-07T12:23:37.650Z</time>
      </trkpt>
      <trkpt lat="47.462871" lon="7.837954">
        <ele>390.798180</ele>
        <time>2021-11-07T12:23:38.098Z</time>
      </trkpt>
      <trkpt lat="47.462869" lon="7.837866">
        <ele>390.730336</ele>
        <time>2021-11-07T12:23:38.717Z</time>
      </trkpt>
      <trkpt lat="47.462865" lon="7.837711">
        <ele>390.610818</ele>
        <time>2021-11-07T12:23:40.022Z</time>
      </trkpt>
      <trkpt lat="47.462856" lon="7.837506">
        <ele>390.452528</ele>
        <time>2021-11-07T12:23:41.862Z</time>
      </trkpt>
      <trkpt lat="47.462851" lon="7.837404">
        <ele>390.373728</ele>
        <time>2021-11-07T12:23:42.570Z</time>
      </trkpt>
      <trkpt lat="47.462748" lon="7.836556">
        <ele>389.717169</ele>
        <time>2021-11-07T12:23:49.167Z</time>
      </trkpt>
      <trkpt lat="47.462730" lon="7.836472">
        <ele>389.659680</ele>
        <time>2021-11-07T12:23:50.020Z</time>
      </trkpt>
      <trkpt lat="47.462700" lon="7.836337">
        <ele>389.566970</ele>
        <time>2021-11-07T12:23:51.201Z</time>
      </trkpt>
      <trkpt lat="47.462666" lon="7.836201">
        <ele>389.472372</ele>
        <time>2021-11-07T12:23:52.409Z</time>
      </trkpt>
      <trkpt lat="47.462586" lon="7.835900">
        <ele>389.261369</ele>
        <time>2021-11-07T12:23:55.059Z</time>
      </trkpt>
      <trkpt lat="47.462388" lon="7.834991">
        <ele>388.638315</ele>
        <time>2021-11-07T12:24:03.524Z</time>
      </trkpt>
      <trkpt lat="47.462375" lon="7.834910">
        <ele>388.584001</ele>
        <time>2021-11-07T12:24:04.177Z</time>
      </trkpt>
      <trkpt lat="47.462357" lon="7.834782">
        <ele>388.498706</ele>
        <time>2021-11-07T12:24:05.193Z</time>
      </trkpt>
      <trkpt lat="47.462317" lon="7.834216">
        <ele>388.127433</ele>
        <time>2021-11-07T12:24:10.015Z</time>
      </trkpt>
      <trkpt lat="47.462296" lon="7.833933">
        <ele>387.933653</ele>
        <time>2021-11-07T12:24:12.367Z</time>
      </trkpt>
      <trkpt lat="47.462285" lon="7.833721">
        <ele>387.781020</ele>
        <time>2021-11-07T12:24:14.002Z</time>
      </trkpt>
      <trkpt lat="47.462217" lon="7.832953">
        <ele>387.225000</ele>
        <time>2021-11-07T12:24:20.341Z</time>
      </trkpt>
      <trkpt lat="47.462179" lon="7.832744">
        <ele>387.069637</ele>
        <time>2021-11-07T12:24:22.048Z</time>
      </trkpt>
      <trkpt lat="47.462262" lon="7.832704">
        <ele>386.976948</ele>
        <time>2021-11-07T12:24:23.537Z</time>
      </trkpt>
      <trkpt lat="47.462262" lon="7.832704">
        <ele>386.976948</ele>
        <time>2021-11-07T12:24:23.540Z</time>
      </trkpt>
      <trkpt lat="47.462246" lon="7.832587">
        <ele>386.891258</ele>
        <time>2021-11-07T12:24:24.979Z</time>
      </trkpt>
      <trkpt lat="47.462233" lon="7.832513">
        <ele>386.836372</ele>
        <time>2021-11-07T12:24:25.912Z</time>
      </trkpt>
      <trkpt lat="47.462192" lon="7.832386">
        <ele>386.735344</ele>
        <time>2021-11-07T12:24:27.601Z</time>
      </trkpt>
      <trkpt lat="47.462176" lon="7.832337">
        <ele>386.696281</ele>
        <time>2021-11-07T12:24:28.268Z</time>
      </trkpt>
      <trkpt lat="47.462149" lon="7.832256">
        <ele>386.631452</ele>
        <time>2021-11-07T12:24:29.379Z</time>
      </trkpt>
      <trkpt lat="47.461985" lon="7.831682">
        <ele>386.184117</ele>
        <time>2021-11-07T12:24:36.759Z</time>
      </trkpt>
      <trkpt lat="47.461795" lon="7.830905">
        <ele>385.408734</ele>
        <time>2021-11-07T12:24:46.334Z</time>
      </trkpt>
      <trkpt lat="47.461602" lon="7.829950">
        <ele>384.442947</ele>
        <time>2021-11-07T12:24:57.409Z</time>
      </trkpt>
      <trkpt lat="47.461622" lon="7.829595">
        <ele>384.097783</ele>
        <time>2021-11-07T12:25:01.377Z</time>
      </trkpt>
      <trkpt lat="47.461625" lon="7.829509">
        <ele>384.014344</ele>
        <time>2021-11-07T12:25:02.233Z</time>
      </trkpt>
      <trkpt lat="47.461676" lon="7.828959">
        <ele>383.471199</ele>
        <time>2021-11-07T12:25:08.317Z</time>
      </trkpt>
      <trkpt lat="47.461722" lon="7.828676">
        <ele>383.163634</ele>
        <time>2021-11-07T12:25:11.520Z</time>
      </trkpt>
      <trkpt lat="47.461750" lon="7.828492">
        <ele>382.964338</ele>
        <time>2021-11-07T12:25:13.559Z</time>
      </trkpt>
      <trkpt lat="47.461803" lon="7.828145">
        <ele>382.588425</ele>
        <time>2021-11-07T12:25:17.414Z</time>
      </trkpt>
      <trkpt lat="47.461984" lon="7.826457">
        <ele>380.782437</ele>
        <time>2021-11-07T12:25:36.058Z</time>
      </trkpt>
      <trkpt lat="47.462013" lon="7.826289">
        <ele>380.679398</ele>
        <time>2021-11-07T12:25:38.174Z</time>
      </trkpt>
      <trkpt lat="47.462013" lon="7.826289">
        <ele>380.679398</ele>
        <time>2021-11-07T12:25:38.175Z</time>
      </trkpt>
      <trkpt lat="47.462617" lon="7.825344">
        <ele>380.194690</ele>
        <time>2021-11-07T12:25:54.469Z</time>
      </trkpt>
      <trkpt lat="47.462626" lon="7.825283">
        <ele>380.171419</ele>
        <time>2021-11-07T12:25:55.237Z</time>
      </trkpt>
      <trkpt lat="47.462608" lon="7.825120">
        <ele>380.109861</ele>
        <time>2021-11-07T12:25:57.378Z</time>
      </trkpt>
      <trkpt lat="47.462540" lon="7.824993">
        <ele>380.049478</ele>
        <time>2021-11-07T12:25:59.441Z</time>
      </trkpt>
      <trkpt lat="47.462517" lon="7.824972">
        <ele>380.034577</ele>
        <time>2021-11-07T12:25:59.946Z</time>
      </trkpt>
      <trkpt lat="47.462476" lon="7.824944">
        <ele>380.009680</ele>
        <time>2021-11-07T12:26:00.816Z</time>
      </trkpt>
      <trkpt lat="47.462402" lon="7.824900">
        <ele>379.965711</ele>
        <time>2021-11-07T12:26:02.261Z</time>
      </trkpt>
      <trkpt lat="47.462349" lon="7.824857">
        <ele>379.932385</ele>
        <time>2021-11-07T12:26:03.438Z</time>
      </trkpt>
      <trkpt lat="47.462317" lon="7.824823">
        <ele>379.910664</ele>
        <time>2021-11-07T12:26:04.174Z</time>
      </trkpt>
      <trkpt lat="47.462262" lon="7.824736">
        <ele>379.866269</ele>
        <time>2021-11-07T12:26:05.691Z</time>
      </trkpt>
      <trkpt lat="47.462242" lon="7.824692">
        <ele>379.846507</ele>
        <time>2021-11-07T12:26:06.370Z</time>
      </trkpt>
      <trkpt lat="47.462217" lon="7.824625">
        <ele>379.817983</ele>
        <time>2021-11-07T12:26:07.356Z</time>
      </trkpt>
      <trkpt lat="47.462137" lon="7.823536">
        <ele>379.495739</ele>
        <time>2021-11-07T12:26:21.670Z</time>
      </trkpt>
      <trkpt lat="47.462017" lon="7.821859">
        <ele>379.035249</ele>
        <time>2021-11-07T12:26:43.485Z</time>
      </trkpt>
      <trkpt lat="47.461985" lon="7.821867">
        <ele>379.022141</ele>
        <time>2021-11-07T12:26:44.088Z</time>
      </trkpt>
      <trkpt lat="47.461966" lon="7.821681">
        <ele>378.934637</ele>
        <time>2021-11-07T12:26:45.522Z</time>
      </trkpt>
      <trkpt lat="47.461748" lon="7.820387">
        <ele>378.186282</ele>
        <time>2021-11-07T12:26:56.799Z</time>
      </trkpt>
      <trkpt lat="47.461730" lon="7.820282">
        <ele>378.125495</ele>
        <time>2021-11-07T12:26:57.746Z</time>
      </trkpt>
      <trkpt lat="47.461722" lon="7.820179">
        <ele>378.067314</ele>
        <time>2021-11-07T12:26:58.495Z</time>
      </trkpt>
      <trkpt lat="47.461728" lon="7.820131">
        <ele>378.039922</ele>
        <time>2021-11-07T12:26:58.901Z</time>
      </trkpt>
      <trkpt lat="47.461754" lon="7.819910">
        <ele>377.914040</ele>
        <time>2021-11-07T12:27:00.942Z</time>
      </trkpt>
      <trkpt lat="47.461818" lon="7.819635">
        <ele>377.750832</ele>
        <time>2021-11-07T12:27:03.257Z</time>
      </trkpt>
      <trkpt lat="47.461832" lon="7.819582">
        <ele>377.718901</ele>
        <time>2021-11-07T12:27:03.807Z</time>
      </trkpt>
      <trkpt lat="47.461833" lon="7.819386">
        <ele>377.608909</ele>
        <time>2021-11-07T12:27:05.580Z</time>
      </trkpt>
      <trkpt lat="47.461803" lon="7.819336">
        <ele>377.571394</ele>
        <time>2021-11-07T12:27:06.191Z</time>
      </trkpt>
      <trkpt lat="47.461912" lon="7.819188">
        <ele>377.478449</ele>
        <time>2021-11-07T12:27:07.897Z</time>
      </trkpt>
      <trkpt lat="47.461960" lon="7.819120">
        <ele>377.449223</ele>
        <time>2021-11-07T12:27:08.825Z</time>
      </trkpt>
      <trkpt lat="47.462012" lon="7.818948">
        <ele>377.393209</ele>
        <time>2021-11-07T12:27:10.542Z</time>
      </trkpt>
      <trkpt lat="47.462122" lon="7.818441">
        <ele>377.234912</ele>
        <time>2021-11-07T12:27:15.088Z</time>
      </trkpt>
      <trkpt lat="47.462262" lon="7.817447">
        <ele>376.933062</ele>
        <time>2021-11-07T12:27:24.289Z</time>
      </trkpt>
      <trkpt lat="47.462434" lon="7.816598">
        <ele>376.710145</ele>
        <time>2021-11-07T12:27:33.144Z</time>
      </trkpt>
      <trkpt lat="47.462785" lon="7.815763">
        <ele>376.647604</ele>
        <time>2021-11-07T12:27:42.871Z</time>
      </trkpt>
      <trkpt lat="47.462859" lon="7.815548">
        <ele>376.632258</ele>
        <time>2021-11-07T12:27:45.436Z</time>
      </trkpt>
      <trkpt lat="47.462865" lon="7.815524">
        <ele>376.630631</ele>
        <time>2021-11-07T12:27:45.718Z</time>
      </trkpt>
      <trkpt lat="47.462867" lon="7.815468">
        <ele>376.627064</ele>
        <time>2021-11-07T12:27:46.245Z</time>
      </trkpt>
      <trkpt lat="47.462863" lon="7.815440">
        <ele>376.625243</ele>
        <time>2021-11-07T12:27:46.553Z</time>
      </trkpt>
      <trkpt lat="47.462902" lon="7.815377">
        <ele>376.619810</ele>
        <time>2021-11-07T12:27:47.594Z</time>
      </trkpt>
      <trkpt lat="47.463209" lon="7.814244">
        <ele>376.496993</ele>
        <time>2021-11-07T12:28:03.765Z</time>
      </trkpt>
      <trkpt lat="47.463323" lon="7.813790">
        <ele>376.324095</ele>
        <time>2021-11-07T12:28:10.145Z</time>
      </trkpt>
      <trkpt lat="47.463516" lon="7.813197">
        <ele>376.089138</ele>
        <time>2021-11-07T12:28:18.766Z</time>
      </trkpt>
      <trkpt lat="47.463585" lon="7.813014">
        <ele>376.014334</ele>
        <time>2021-11-07T12:28:21.401Z</time>
      </trkpt>
      <trkpt lat="47.463671" lon="7.812852">
        <ele>375.940800</ele>
        <time>2021-11-07T12:28:23.932Z</time>
      </trkpt>
      <trkpt lat="47.463905" lon="7.812397">
        <ele>375.736708</ele>
        <time>2021-11-07T12:28:30.694Z</time>
      </trkpt>
      <trkpt lat="47.463958" lon="7.812269">
        <ele>375.683122</ele>
        <time>2021-11-07T12:28:32.480Z</time>
      </trkpt>
      <trkpt lat="47.464174" lon="7.811536">
        <ele>375.043988</ele>
        <time>2021-11-07T12:28:41.960Z</time>
      </trkpt>
      <trkpt lat="47.464316" lon="7.810976">
        <ele>374.461208</ele>
        <time>2021-11-07T12:28:48.851Z</time>
      </trkpt>
      <trkpt lat="47.464316" lon="7.810976">
        <ele>374.461208</ele>
        <time>2021-11-07T12:28:48.888Z</time>
      </trkpt>
      <trkpt lat="47.464316" lon="7.810976">
        <ele>374.461208</ele>
        <time>2021-11-07T12:28:48.926Z</time>
      </trkpt>
      <trkpt lat="47.464325" lon="7.810936">
        <ele>374.420131</ele>
        <time>2021-11-07T12:28:49.346Z</time>
      </trkpt>
      <trkpt lat="47.464370" lon="7.810752">
        <ele>374.229472</ele>
        <time>2021-11-07T12:28:51.573Z</time>
      </trkpt>
      <trkpt lat="47.464364" lon="7.810630">
        <ele>374.110282</ele>
        <time>2021-11-07T12:28:52.954Z</time>
      </trkpt>
      <trkpt lat="47.464385" lon="7.810619">
        <ele>374.078173</ele>
        <time>2021-11-07T12:28:53.195Z</time>
      </trkpt>
      <trkpt lat="47.464417" lon="7.810573">
        <ele>374.013859</ele>
        <time>2021-11-07T12:28:53.742Z</time>
      </trkpt>
      <trkpt lat="47.464452" lon="7.810429">
        <ele>373.864755</ele>
        <time>2021-11-07T12:28:54.902Z</time>
      </trkpt>
      <trkpt lat="47.464496" lon="7.810462">
        <ele>373.793651</ele>
        <time>2021-11-07T12:28:55.439Z</time>
      </trkpt>
      <trkpt lat="47.464636" lon="7.810572">
        <ele>373.565169</ele>
        <time>2021-11-07T12:28:57.315Z</time>
      </trkpt>
      <trkpt lat="47.465087" lon="7.810791">
        <ele>372.906765</ele>
        <time>2021-11-07T12:29:02.574Z</time>
      </trkpt>
      <trkpt lat="47.465212" lon="7.810852">
        <ele>372.754991</ele>
        <time>2021-11-07T12:29:03.995Z</time>
      </trkpt>
      <trkpt lat="47.465394" lon="7.810939">
        <ele>372.534449</ele>
        <time>2021-11-07T12:29:06.088Z</time>
      </trkpt>
      <trkpt lat="47.465536" lon="7.811007">
        <ele>372.362349</ele>
        <time>2021-11-07T12:29:07.651Z</time>
      </trkpt>
      <trkpt lat="47.465656" lon="7.811068">
        <ele>372.216039</ele>
        <time>2021-11-07T12:29:09.040Z</time>
      </trkpt>
      <trkpt lat="47.465897" lon="7.811237">
        <ele>371.908508</ele>
        <time>2021-11-07T12:29:11.912Z</time>
      </trkpt>
      <trkpt lat="47.466010" lon="7.811328">
        <ele>371.760155</ele>
        <time>2021-11-07T12:29:13.473Z</time>
      </trkpt>
      <trkpt lat="47.466094" lon="7.811396">
        <ele>371.649743</ele>
        <time>2021-11-07T12:29:14.567Z</time>
      </trkpt>
      <trkpt lat="47.466196" lon="7.811499">
        <ele>371.507339</ele>
        <time>2021-11-07T12:29:16.064Z</time>
      </trkpt>
      <trkpt lat="47.466262" lon="7.811579">
        <ele>371.408951</ele>
        <time>2021-11-07T12:29:17.095Z</time>
      </trkpt>
      <trkpt lat="47.466315" lon="7.811646">
        <ele>371.328563</ele>
        <time>2021-11-07T12:29:17.980Z</time>
      </trkpt>
      <trkpt lat="47.466490" lon="7.811850">
        <ele>371.071651</ele>
        <time>2021-11-07T12:29:21.093Z</time>
      </trkpt>
      <trkpt lat="47.466578" lon="7.811937">
        <ele>370.949607</ele>
        <time>2021-11-07T12:29:22.793Z</time>
      </trkpt>
      <trkpt lat="47.466676" lon="7.812018">
        <ele>371.352849</ele>
        <time>2021-11-07T12:29:24.646Z</time>
      </trkpt>
      <trkpt lat="47.466796" lon="7.812117">
        <ele>371.923974</ele>
        <time>2021-11-07T12:29:27.724Z</time>
      </trkpt>
      <trkpt lat="47.467013" lon="7.812269">
        <ele>372.921975</ele>
        <time>2021-11-07T12:29:33.247Z</time>
      </trkpt>
      <trkpt lat="47.467077" lon="7.812317">
        <ele>373.220238</ele>
        <time>2021-11-07T12:29:34.672Z</time>
      </trkpt>
      <trkpt lat="47.467146" lon="7.812375">
        <ele>373.550116</ele>
        <time>2021-11-07T12:29:37.195Z</time>
      </trkpt>
      <trkpt lat="47.467426" lon="7.812608">
        <ele>374.885485</ele>
        <time>2021-11-07T12:29:45.450Z</time>
      </trkpt>
      <trkpt lat="47.467739" lon="7.812865">
        <ele>376.373490</ele>
        <time>2021-11-07T12:29:58.011Z</time>
      </trkpt>
      <trkpt lat="47.467746" lon="7.812871">
        <ele>376.407118</ele>
        <time>2021-11-07T12:29:58.875Z</time>
      </trkpt>
      <trkpt lat="47.467857" lon="7.812969">
        <ele>376.944431</ele>
        <time>2021-11-07T12:30:03.389Z</time>
      </trkpt>
      <trkpt lat="47.467958" lon="7.813047">
        <ele>377.418018</ele>
        <time>2021-11-07T12:30:08.565Z</time>
      </trkpt>
      <trkpt lat="47.467986" lon="7.813069">
        <ele>377.549802</ele>
        <time>2021-11-07T12:30:09.357Z</time>
      </trkpt>
      <trkpt lat="47.468087" lon="7.813122">
        <ele>377.995253</ele>
        <time>2021-11-07T12:30:13.341Z</time>
      </trkpt>
      <trkpt lat="47.468231" lon="7.813117">
        <ele>378.827517</ele>
        <time>2021-11-07T12:30:20.009Z</time>
      </trkpt>
      <trkpt lat="47.468898" lon="7.813028">
        <ele>385.186484</ele>
        <time>2021-11-07T12:30:57.687Z</time>
      </trkpt>
      <trkpt lat="47.468968" lon="7.813033">
        <ele>385.851918</ele>
        <time>2021-11-07T12:31:02.523Z</time>
      </trkpt>
      <trkpt lat="47.469261" lon="7.813214">
        <ele>388.866821</ele>
        <time>2021-11-07T12:31:20.847Z</time>
      </trkpt>
      <trkpt lat="47.469382" lon="7.813432">
        <ele>390.677316</ele>
        <time>2021-11-07T12:31:31.117Z</time>
      </trkpt>
      <trkpt lat="47.469445" lon="7.813683">
        <ele>392.395845</ele>
        <time>2021-11-07T12:31:41.588Z</time>
      </trkpt>
      <trkpt lat="47.469471" lon="7.813955">
        <ele>394.159059</ele>
        <time>2021-11-07T12:31:50.505Z</time>
      </trkpt>
      <trkpt lat="47.469477" lon="7.814056">
        <ele>394.809831</ele>
        <time>2021-11-07T12:31:55.431Z</time>
      </trkpt>
      <trkpt lat="47.469523" lon="7.814249">
        <ele>395.904612</ele>
        <time>2021-11-07T12:32:01.503Z</time>
      </trkpt>
      <trkpt lat="47.469564" lon="7.814419">
        <ele>396.662699</ele>
        <time>2021-11-07T12:32:06.031Z</time>
      </trkpt>
      <trkpt lat="47.469608" lon="7.814504">
        <ele>397.112352</ele>
        <time>2021-11-07T12:32:11.136Z</time>
      </trkpt>
      <trkpt lat="47.469647" lon="7.814557">
        <ele>397.441394</ele>
        <time>2021-11-07T12:32:13.575Z</time>
      </trkpt>
      <trkpt lat="47.469960" lon="7.814754">
        <ele>399.554827</ele>
        <time>2021-11-07T12:32:29.593Z</time>
      </trkpt>
      <trkpt lat="47.470163" lon="7.814758">
        <ele>400.816223</ele>
        <time>2021-11-07T12:32:35.464Z</time>
      </trkpt>
      <trkpt lat="47.470596" lon="7.814760">
        <ele>403.506562</ele>
        <time>2021-11-07T12:32:51.980Z</time>
      </trkpt>
      <trkpt lat="47.470838" lon="7.814669">
        <ele>405.057976</ele>
        <time>2021-11-07T12:33:00.624Z</time>
      </trkpt>
      <trkpt lat="47.470969" lon="7.814299">
        <ele>406.798316</ele>
        <time>2021-11-07T12:33:10.233Z</time>
      </trkpt>
      <trkpt lat="47.470938" lon="7.813871">
        <ele>408.434628</ele>
        <time>2021-11-07T12:33:18.334Z</time>
      </trkpt>
      <trkpt lat="47.470607" lon="7.813259">
        <ele>411.414121</ele>
        <time>2021-11-07T12:33:33.764Z</time>
      </trkpt>
      <trkpt lat="47.470614" lon="7.813052">
        <ele>412.202000</ele>
        <time>2021-11-07T12:33:39.137Z</time>
      </trkpt>
      <trkpt lat="47.470744" lon="7.812887">
        <ele>413.165274</ele>
        <time>2021-11-07T12:33:44.187Z</time>
      </trkpt>
      <trkpt lat="47.470794" lon="7.812878">
        <ele>413.448531</ele>
        <time>2021-11-07T12:33:46.193Z</time>
      </trkpt>
      <trkpt lat="47.470835" lon="7.812891">
        <ele>413.684338</ele>
        <time>2021-11-07T12:33:48.949Z</time>
      </trkpt>
      <trkpt lat="47.470923" lon="7.812993">
        <ele>414.313031</ele>
        <time>2021-11-07T12:33:52.497Z</time>
      </trkpt>
      <trkpt lat="47.471093" lon="7.813407">
        <ele>416.154432</ele>
        <time>2021-11-07T12:34:05.391Z</time>
      </trkpt>
      <trkpt lat="47.472320" lon="7.814860">
        <ele>432.439868</ele>
        <time>2021-11-07T12:35:37.112Z</time>
      </trkpt>
      <trkpt lat="47.472505" lon="7.815033">
        <ele>434.786753</ele>
        <time>2021-11-07T12:35:50.543Z</time>
      </trkpt>
      <trkpt lat="47.472623" lon="7.815140">
        <ele>436.304652</ele>
        <time>2021-11-07T12:35:59.643Z</time>
      </trkpt>
      <trkpt lat="47.473230" lon="7.815705">
        <ele>445.276213</ele>
        <time>2021-11-07T12:36:45.770Z</time>
      </trkpt>
      <trkpt lat="47.473743" lon="7.816298">
        <ele>453.420557</ele>
        <time>2021-11-07T12:37:34.043Z</time>
      </trkpt>
      <trkpt lat="47.473926" lon="7.816632">
        <ele>457.056153</ele>
        <time>2021-11-07T12:37:52.966Z</time>
      </trkpt>
      <trkpt lat="47.474182" lon="7.817417">
        <ele>462.870054</ele>
        <time>2021-11-07T12:38:21.399Z</time>
      </trkpt>
      <trkpt lat="47.474210" lon="7.817475">
        <ele>463.312609</ele>
        <time>2021-11-07T12:38:24.855Z</time>
      </trkpt>
      <trkpt lat="47.474210" lon="7.817475">
        <ele>463.312609</ele>
        <time>2021-11-07T12:38:25.233Z</time>
      </trkpt>
      <trkpt lat="47.474233" lon="7.817507">
        <ele>463.602643</ele>
        <time>2021-11-07T12:38:27.618Z</time>
      </trkpt>
      <trkpt lat="47.474389" lon="7.817613">
        <ele>465.179614</ele>
        <time>2021-11-07T12:38:34.156Z</time>
      </trkpt>
      <trkpt lat="47.474555" lon="7.817587">
        <ele>466.713052</ele>
        <time>2021-11-07T12:38:43.814Z</time>
      </trkpt>
      <trkpt lat="47.474613" lon="7.817546">
        <ele>467.303549</ele>
        <time>2021-11-07T12:38:47.582Z</time>
      </trkpt>
      <trkpt lat="47.474641" lon="7.817509">
        <ele>467.648424</ele>
        <time>2021-11-07T12:38:48.338Z</time>
      </trkpt>
      <trkpt lat="47.474739" lon="7.817281">
        <ele>469.326104</ele>
        <time>2021-11-07T12:38:54.660Z</time>
      </trkpt>
      <trkpt lat="47.474739" lon="7.816928">
        <ele>471.517924</ele>
        <time>2021-11-07T12:39:06.764Z</time>
      </trkpt>
      <trkpt lat="47.474616" lon="7.816226">
        <ele>476.167737</ele>
        <time>2021-11-07T12:39:31.659Z</time>
      </trkpt>
      <trkpt lat="47.474375" lon="7.815394">
        <ele>482.677315</ele>
        <time>2021-11-07T12:40:05.517Z</time>
      </trkpt>
      <trkpt lat="47.474430" lon="7.815154">
        <ele>484.499772</ele>
        <time>2021-11-07T12:40:15.300Z</time>
      </trkpt>
      <trkpt lat="47.474584" lon="7.814993">
        <ele>486.506064</ele>
        <time>2021-11-07T12:40:25.382Z</time>
      </trkpt>
      <trkpt lat="47.474804" lon="7.814845">
        <ele>489.077383</ele>
        <time>2021-11-07T12:40:41.383Z</time>
      </trkpt>
      <trkpt lat="47.474961" lon="7.814741">
        <ele>490.907582</ele>
        <time>2021-11-07T12:40:51.190Z</time>
      </trkpt>
      <trkpt lat="47.475210" lon="7.814595">
        <ele>493.757299</ele>
        <time>2021-11-07T12:41:08.203Z</time>
      </trkpt>
      <trkpt lat="47.475276" lon="7.814567">
        <ele>494.497957</ele>
        <time>2021-11-07T12:41:12.217Z</time>
      </trkpt>
      <trkpt lat="47.475471" lon="7.814482">
        <ele>496.745585</ele>
        <time>2021-11-07T12:41:25.379Z</time>
      </trkpt>
      <trkpt lat="47.475705" lon="7.814474">
        <ele>499.333476</ele>
        <time>2021-11-07T12:41:39.191Z</time>
      </trkpt>
      <trkpt lat="47.476077" lon="7.814575">
        <ele>503.515142</ele>
        <time>2021-11-07T12:42:03.743Z</time>
      </trkpt>
      <trkpt lat="47.476150" lon="7.814569">
        <ele>504.323504</ele>
        <time>2021-11-07T12:42:10.068Z</time>
      </trkpt>
      <trkpt lat="47.476204" lon="7.814552">
        <ele>504.933917</ele>
        <time>2021-11-07T12:42:13.387Z</time>
      </trkpt>
      <trkpt lat="47.476334" lon="7.814450">
        <ele>506.560860</ele>
        <time>2021-11-07T12:42:22.702Z</time>
      </trkpt>
      <trkpt lat="47.476534" lon="7.814226">
        <ele>509.334278</ele>
        <time>2021-11-07T12:42:37.114Z</time>
      </trkpt>
      <trkpt lat="47.476563" lon="7.814189">
        <ele>509.757668</ele>
        <time>2021-11-07T12:42:39.020Z</time>
      </trkpt>
      <trkpt lat="47.476884" lon="7.813858">
        <ele>514.083699</ele>
        <time>2021-11-07T12:42:58.372Z</time>
      </trkpt>
      <trkpt lat="47.476980" lon="7.813791">
        <ele>514.959959</ele>
        <time>2021-11-07T12:43:03.810Z</time>
      </trkpt>
      <trkpt lat="47.477155" lon="7.813696">
        <ele>516.484361</ele>
        <time>2021-11-07T12:43:12.140Z</time>
      </trkpt>
      <trkpt lat="47.477516" lon="7.813359">
        <ele>519.975052</ele>
        <time>2021-11-07T12:43:31.359Z</time>
      </trkpt>
      <trkpt lat="47.477546" lon="7.813318">
        <ele>520.309032</ele>
        <time>2021-11-07T12:43:34.693Z</time>
      </trkpt>
      <trkpt lat="47.477609" lon="7.813223">
        <ele>521.044657</ele>
        <time>2021-11-07T12:43:38.370Z</time>
      </trkpt>
      <trkpt lat="47.478172" lon="7.812240">
        <ele>528.166267</ele>
        <time>2021-11-07T12:44:17.600Z</time>
      </trkpt>
      <trkpt lat="47.478216" lon="7.812137">
        <ele>528.846125</ele>
        <time>2021-11-07T12:44:21.442Z</time>
      </trkpt>
      <trkpt lat="47.478245" lon="7.812069">
        <ele>529.473545</ele>
        <time>2021-11-07T12:44:26.074Z</time>
      </trkpt>
      <trkpt lat="47.478262" lon="7.811831">
        <ele>531.341043</ele>
        <time>2021-11-07T12:44:32.608Z</time>
      </trkpt>
      <trkpt lat="47.478204" lon="7.811401">
        <ele>534.762576</ele>
        <time>2021-11-07T12:44:48.372Z</time>
      </trkpt>
      <trkpt lat="47.478231" lon="7.811139">
        <ele>536.830638</ele>
        <time>2021-11-07T12:44:56.497Z</time>
      </trkpt>
      <trkpt lat="47.478335" lon="7.810955">
        <ele>538.702322</ele>
        <time>2021-11-07T12:45:06.288Z</time>
      </trkpt>
      <trkpt lat="47.478566" lon="7.810790">
        <ele>541.663826</ele>
        <time>2021-11-07T12:45:24.735Z</time>
      </trkpt>
      <trkpt lat="47.478809" lon="7.810763">
        <ele>544.477252</ele>
        <time>2021-11-07T12:45:40.391Z</time>
      </trkpt>
      <trkpt lat="47.478943" lon="7.810849">
        <ele>546.163606</ele>
        <time>2021-11-07T12:45:53.490Z</time>
      </trkpt>
      <trkpt lat="47.479473" lon="7.811584">
        <ele>554.734244</ele>
        <time>2021-11-07T12:46:43.081Z</time>
      </trkpt>
      <trkpt lat="47.479687" lon="7.811839">
        <ele>558.024240</ele>
        <time>2021-11-07T12:47:00.147Z</time>
      </trkpt>
      <trkpt lat="47.479735" lon="7.811893">
        <ele>558.746240</ele>
        <time>2021-11-07T12:47:05.916Z</time>
      </trkpt>
      <trkpt lat="47.480713" lon="7.812994">
        <ele>572.595316</ele>
        <time>2021-11-07T12:48:19.068Z</time>
      </trkpt>
      <trkpt lat="47.480872" lon="7.813093">
        <ele>573.895061</ele>
        <time>2021-11-07T12:48:28.966Z</time>
      </trkpt>
      <trkpt lat="47.481456" lon="7.813058">
        <ele>578.298858</ele>
        <time>2021-11-07T12:48:52.271Z</time>
      </trkpt>
      <trkpt lat="47.481920" lon="7.813196">
        <ele>581.864822</ele>
        <time>2021-11-07T12:49:09.279Z</time>
      </trkpt>
      <trkpt lat="47.482097" lon="7.813263">
        <ele>583.241388</ele>
        <time>2021-11-07T12:49:15.846Z</time>
      </trkpt>
      <trkpt lat="47.482420" lon="7.813239">
        <ele>585.859172</ele>
        <time>2021-11-07T12:49:30.176Z</time>
      </trkpt>
      <trkpt lat="47.482949" lon="7.813114">
        <ele>590.626623</ele>
        <time>2021-11-07T12:49:57.355Z</time>
      </trkpt>
      <trkpt lat="47.483220" lon="7.813099">
        <ele>593.040058</ele>
        <time>2021-11-07T12:50:13.230Z</time>
      </trkpt>
      <trkpt lat="47.483493" lon="7.813178">
        <ele>595.515626</ele>
        <time>2021-11-07T12:50:26.661Z</time>
      </trkpt>
      <trkpt lat="47.483708" lon="7.813293">
        <ele>597.550174</ele>
        <time>2021-11-07T12:50:39.681Z</time>
      </trkpt>
      <trkpt lat="47.483804" lon="7.813389">
        <ele>598.581318</ele>
        <time>2021-11-07T12:50:45.261Z</time>
      </trkpt>
      <trkpt lat="47.483867" lon="7.813452">
        <ele>599.258006</ele>
        <time>2021-11-07T12:50:52.117Z</time>
      </trkpt>
      <trkpt lat="47.484375" lon="7.813958">
        <ele>603.534480</ele>
        <time>2021-11-07T12:51:19.446Z</time>
      </trkpt>
      <trkpt lat="47.484474" lon="7.814023">
        <ele>604.217196</ele>
        <time>2021-11-07T12:51:27.790Z</time>
      </trkpt>
      <trkpt lat="47.484558" lon="7.814061">
        <ele>604.770880</ele>
        <time>2021-11-07T12:51:33.024Z</time>
      </trkpt>
      <trkpt lat="47.484689" lon="7.814083">
        <ele>605.601938</ele>
        <time>2021-11-07T12:51:40.203Z</time>
      </trkpt>
      <trkpt lat="47.484732" lon="7.814081">
        <ele>605.873122</ele>
        <time>2021-11-07T12:51:43.080Z</time>
      </trkpt>
      <trkpt lat="47.484810" lon="7.814067">
        <ele>606.368398</ele>
        <time>2021-11-07T12:51:49.093Z</time>
      </trkpt>
      <trkpt lat="47.485144" lon="7.813866">
        <ele>608.641210</ele>
        <time>2021-11-07T12:52:05.218Z</time>
      </trkpt>
      <trkpt lat="47.485925" lon="7.813196">
        <ele>611.472824</ele>
        <time>2021-11-07T12:52:25.435Z</time>
      </trkpt>
      <trkpt lat="47.486531" lon="7.812839">
        <ele>610.492393</ele>
        <time>2021-11-07T12:52:32.823Z</time>
      </trkpt>
      <trkpt lat="47.486782" lon="7.812718">
        <ele>610.095590</ele>
        <time>2021-11-07T12:52:35.550Z</time>
      </trkpt>
      <trkpt lat="47.488525" lon="7.812197">
        <ele>604.790338</ele>
        <time>2021-11-07T12:52:53.086Z</time>
      </trkpt>
      <trkpt lat="47.488654" lon="7.812154">
        <ele>604.315758</ele>
        <time>2021-11-07T12:52:54.358Z</time>
      </trkpt>
      <trkpt lat="47.489734" lon="7.811930">
        <ele>599.447763</ele>
        <time>2021-11-07T12:53:05.570Z</time>
      </trkpt>
      <trkpt lat="47.490230" lon="7.811766">
        <ele>596.917111</ele>
        <time>2021-11-07T12:53:10.312Z</time>
      </trkpt>
      <trkpt lat="47.490608" lon="7.811558">
        <ele>594.909018</ele>
        <time>2021-11-07T12:53:14.054Z</time>
      </trkpt>
      <trkpt lat="47.490921" lon="7.811332">
        <ele>592.480894</ele>
        <time>2021-11-07T12:53:17.188Z</time>
      </trkpt>
      <trkpt lat="47.491099" lon="7.811167">
        <ele>590.445430</ele>
        <time>2021-11-07T12:53:19.033Z</time>
      </trkpt>
      <trkpt lat="47.491168" lon="7.811103">
        <ele>589.656265</ele>
        <time>2021-11-07T12:53:19.767Z</time>
      </trkpt>
      <trkpt lat="47.491210" lon="7.811067">
        <ele>589.185900</ele>
        <time>2021-11-07T12:53:20.169Z</time>
      </trkpt>
      <trkpt lat="47.491305" lon="7.811022">
        <ele>588.219236</ele>
        <time>2021-11-07T12:53:21.004Z</time>
      </trkpt>
      <trkpt lat="47.491356" lon="7.811021">
        <ele>587.724945</ele>
        <time>2021-11-07T12:53:21.470Z</time>
      </trkpt>
      <trkpt lat="47.491417" lon="7.811033">
        <ele>587.128588</ele>
        <time>2021-11-07T12:53:22.029Z</time>
      </trkpt>
      <trkpt lat="47.491536" lon="7.811112">
        <ele>585.864633</ele>
        <time>2021-11-07T12:53:23.159Z</time>
      </trkpt>
      <trkpt lat="47.491701" lon="7.811206">
        <ele>584.151217</ele>
        <time>2021-11-07T12:53:24.649Z</time>
      </trkpt>
      <trkpt lat="47.492165" lon="7.811273">
        <ele>579.633189</ele>
        <time>2021-11-07T12:53:28.664Z</time>
      </trkpt>
      <trkpt lat="47.492224" lon="7.811327">
        <ele>578.960908</ele>
        <time>2021-11-07T12:53:29.265Z</time>
      </trkpt>
      <trkpt lat="47.492257" lon="7.811384">
        <ele>578.469390</ele>
        <time>2021-11-07T12:53:29.683Z</time>
      </trkpt>
      <trkpt lat="47.492257" lon="7.811384">
        <ele>578.469390</ele>
        <time>2021-11-07T12:53:29.704Z</time>
      </trkpt>
      <trkpt lat="47.492273" lon="7.811452">
        <ele>577.997888</ele>
        <time>2021-11-07T12:53:30.108Z</time>
      </trkpt>
      <trkpt lat="47.492264" lon="7.811614">
        <ele>576.933503</ele>
        <time>2021-11-07T12:53:31.099Z</time>
      </trkpt>
      <trkpt lat="47.492176" lon="7.811763">
        <ele>575.535923</ele>
        <time>2021-11-07T12:53:32.266Z</time>
      </trkpt>
      <trkpt lat="47.492008" lon="7.811905">
        <ele>573.433889</ele>
        <time>2021-11-07T12:53:33.886Z</time>
      </trkpt>
      <trkpt lat="47.491595" lon="7.812210">
        <ele>568.419006</ele>
        <time>2021-11-07T12:53:37.876Z</time>
      </trkpt>
      <trkpt lat="47.491212" lon="7.812513">
        <ele>563.700468</ele>
        <time>2021-11-07T12:53:41.577Z</time>
      </trkpt>
      <trkpt lat="47.491001" lon="7.812847">
        <ele>560.343646</ele>
        <time>2021-11-07T12:53:44.185Z</time>
      </trkpt>
      <trkpt lat="47.490928" lon="7.813010">
        <ele>558.907993</ele>
        <time>2021-11-07T12:53:45.285Z</time>
      </trkpt>
      <trkpt lat="47.490609" lon="7.813824">
        <ele>552.127578</ele>
        <time>2021-11-07T12:53:50.838Z</time>
      </trkpt>
      <trkpt lat="47.490583" lon="7.813886">
        <ele>551.605755</ele>
        <time>2021-11-07T12:53:51.234Z</time>
      </trkpt>
      <trkpt lat="47.490141" lon="7.814910">
        <ele>542.916281</ele>
        <time>2021-11-07T12:53:58.258Z</time>
      </trkpt>
      <trkpt lat="47.489951" lon="7.815143">
        <ele>540.304800</ele>
        <time>2021-11-07T12:54:00.355Z</time>
      </trkpt>
      <trkpt lat="47.489256" lon="7.815700">
        <ele>532.862010</ele>
        <time>2021-11-07T12:54:07.185Z</time>
      </trkpt>
      <trkpt lat="47.489000" lon="7.816098">
        <ele>529.540318</ele>
        <time>2021-11-07T12:54:10.448Z</time>
      </trkpt>
      <trkpt lat="47.488831" lon="7.816489">
        <ele>526.734490</ele>
        <time>2021-11-07T12:54:13.157Z</time>
      </trkpt>
      <trkpt lat="47.488720" lon="7.816914">
        <ele>523.980066</ele>
        <time>2021-11-07T12:54:15.836Z</time>
      </trkpt>
      <trkpt lat="47.488531" lon="7.818236">
        <ele>518.100138</ele>
        <time>2021-11-07T12:54:24.006Z</time>
      </trkpt>
      <trkpt lat="47.488476" lon="7.818598">
        <ele>516.713109</ele>
        <time>2021-11-07T12:54:26.325Z</time>
      </trkpt>
      <trkpt lat="47.488471" lon="7.818631">
        <ele>516.586684</ele>
        <time>2021-11-07T12:54:26.527Z</time>
      </trkpt>
      <trkpt lat="47.488351" lon="7.819266">
        <ele>514.121814</ele>
        <time>2021-11-07T12:54:30.837Z</time>
      </trkpt>
      <trkpt lat="47.488069" lon="7.819771">
        <ele>511.676888</ele>
        <time>2021-11-07T12:54:35.180Z</time>
      </trkpt>
      <trkpt lat="47.488038" lon="7.819855">
        <ele>511.326957</ele>
        <time>2021-11-07T12:54:35.820Z</time>
      </trkpt>
      <trkpt lat="47.488034" lon="7.819897">
        <ele>511.171882</ele>
        <time>2021-11-07T12:54:36.300Z</time>
      </trkpt>
      <trkpt lat="47.488272" lon="7.820957">
        <ele>507.088061</ele>
        <time>2021-11-07T12:54:44.067Z</time>
      </trkpt>
      <trkpt lat="47.488407" lon="7.821368">
        <ele>505.417281</ele>
        <time>2021-11-07T12:54:46.885Z</time>
      </trkpt>
      <trkpt lat="47.488631" lon="7.821707">
        <ele>503.683789</ele>
        <time>2021-11-07T12:54:49.763Z</time>
      </trkpt>
      <trkpt lat="47.489169" lon="7.822169">
        <ele>498.310429</ele>
        <time>2021-11-07T12:54:55.241Z</time>
      </trkpt>
      <trkpt lat="47.489263" lon="7.822249">
        <ele>497.072388</ele>
        <time>2021-11-07T12:54:56.160Z</time>
      </trkpt>
      <trkpt lat="47.489383" lon="7.822351">
        <ele>495.492401</ele>
        <time>2021-11-07T12:54:57.379Z</time>
      </trkpt>
      <trkpt lat="47.489514" lon="7.822403">
        <ele>493.943869</ele>
        <time>2021-11-07T12:54:58.514Z</time>
      </trkpt>
      <trkpt lat="47.489808" lon="7.822489">
        <ele>490.522244</ele>
        <time>2021-11-07T12:55:01.061Z</time>
      </trkpt>
      <trkpt lat="47.490467" lon="7.822385">
        <ele>482.955595</ele>
        <time>2021-11-07T12:55:06.637Z</time>
      </trkpt>
      <trkpt lat="47.490703" lon="7.822453">
        <ele>480.109833</ele>
        <time>2021-11-07T12:55:08.634Z</time>
      </trkpt>
      <trkpt lat="47.491130" lon="7.822694">
        <ele>474.511683</ele>
        <time>2021-11-07T12:55:12.434Z</time>
      </trkpt>
      <trkpt lat="47.492112" lon="7.823401">
        <ele>461.134455</ele>
        <time>2021-11-07T12:55:21.708Z</time>
      </trkpt>
      <trkpt lat="47.492353" lon="7.823575">
        <ele>458.383346</ele>
        <time>2021-11-07T12:55:23.984Z</time>
      </trkpt>
      <trkpt lat="47.492649" lon="7.823801">
        <ele>455.577671</ele>
        <time>2021-11-07T12:55:26.853Z</time>
      </trkpt>
      <trkpt lat="47.492910" lon="7.823929">
        <ele>453.261517</ele>
        <time>2021-11-07T12:55:29.246Z</time>
      </trkpt>
      <trkpt lat="47.493041" lon="7.823859">
        <ele>452.088288</ele>
        <time>2021-11-07T12:55:30.478Z</time>
      </trkpt>
      <trkpt lat="47.493084" lon="7.823708">
        <ele>451.155626</ele>
        <time>2021-11-07T12:55:31.499Z</time>
      </trkpt>
      <trkpt lat="47.493025" lon="7.823293">
        <ele>448.741838</ele>
        <time>2021-11-07T12:55:34.016Z</time>
      </trkpt>
      <trkpt lat="47.493047" lon="7.823163">
        <ele>447.979058</ele>
        <time>2021-11-07T12:55:34.842Z</time>
      </trkpt>
      <trkpt lat="47.493066" lon="7.823134">
        <ele>447.749143</ele>
        <time>2021-11-07T12:55:35.090Z</time>
      </trkpt>
      <trkpt lat="47.493081" lon="7.823112">
        <ele>447.571252</ele>
        <time>2021-11-07T12:55:35.261Z</time>
      </trkpt>
      <trkpt lat="47.493228" lon="7.823059">
        <ele>446.296752</ele>
        <time>2021-11-07T12:55:36.603Z</time>
      </trkpt>
      <trkpt lat="47.493409" lon="7.823156">
        <ele>444.675181</ele>
        <time>2021-11-07T12:55:38.454Z</time>
      </trkpt>
      <trkpt lat="47.493592" lon="7.823360">
        <ele>443.668402</ele>
        <time>2021-11-07T12:55:40.562Z</time>
      </trkpt>
      <trkpt lat="47.493696" lon="7.823573">
        <ele>443.003562</ele>
        <time>2021-11-07T12:55:42.187Z</time>
      </trkpt>
      <trkpt lat="47.493699" lon="7.823782">
        <ele>442.474696</ele>
        <time>2021-11-07T12:55:43.577Z</time>
      </trkpt>
      <trkpt lat="47.493563" lon="7.824337">
        <ele>440.981118</ele>
        <time>2021-11-07T12:55:47.352Z</time>
      </trkpt>
      <trkpt lat="47.493509" lon="7.824560">
        <ele>440.381814</ele>
        <time>2021-11-07T12:55:48.870Z</time>
      </trkpt>
      <trkpt lat="47.493537" lon="7.824674">
        <ele>440.074942</ele>
        <time>2021-11-07T12:55:49.654Z</time>
      </trkpt>
      <trkpt lat="47.493647" lon="7.824596">
        <ele>439.618241</ele>
        <time>2021-11-07T12:55:50.927Z</time>
      </trkpt>
      <trkpt lat="47.493875" lon="7.824391">
        <ele>438.619361</ele>
        <time>2021-11-07T12:55:54.079Z</time>
      </trkpt>
      <trkpt lat="47.493969" lon="7.824265">
        <ele>438.144506</ele>
        <time>2021-11-07T12:55:55.518Z</time>
      </trkpt>
      <trkpt lat="47.494072" lon="7.824126">
        <ele>437.676818</ele>
        <time>2021-11-07T12:55:57.856Z</time>
      </trkpt>
      <trkpt lat="47.494316" lon="7.823809">
        <ele>437.783412</ele>
        <time>2021-11-07T12:56:02.724Z</time>
      </trkpt>
      <trkpt lat="47.494522" lon="7.823673">
        <ele>437.857468</ele>
        <time>2021-11-07T12:56:05.617Z</time>
      </trkpt>
      <trkpt lat="47.494652" lon="7.823597">
        <ele>437.903358</ele>
        <time>2021-11-07T12:56:08.886Z</time>
      </trkpt>
      <trkpt lat="47.494910" lon="7.823403">
        <ele>437.998368</ele>
        <time>2021-11-07T12:56:13.347Z</time>
      </trkpt>
      <trkpt lat="47.494984" lon="7.823371">
        <ele>438.023679</ele>
        <time>2021-11-07T12:56:15.427Z</time>
      </trkpt>
      <trkpt lat="47.495379" lon="7.823313">
        <ele>438.154000</ele>
        <time>2021-11-07T12:56:22.465Z</time>
      </trkpt>
      <trkpt lat="47.495577" lon="7.823253">
        <ele>438.220355</ele>
        <time>2021-11-07T12:56:25.859Z</time>
      </trkpt>
      <trkpt lat="47.495873" lon="7.823177">
        <ele>438.054623</ele>
        <time>2021-11-07T12:56:30.956Z</time>
      </trkpt>
      <trkpt lat="47.496106" lon="7.823142">
        <ele>437.768664</ele>
        <time>2021-11-07T12:56:35.260Z</time>
      </trkpt>
      <trkpt lat="47.496254" lon="7.823140">
        <ele>437.587947</ele>
        <time>2021-11-07T12:56:37.871Z</time>
      </trkpt>
      <trkpt lat="47.496320" lon="7.823139">
        <ele>437.507355</ele>
        <time>2021-11-07T12:56:38.784Z</time>
      </trkpt>
      <trkpt lat="47.496375" lon="7.823140">
        <ele>437.440194</ele>
        <time>2021-11-07T12:56:39.682Z</time>
      </trkpt>
      <trkpt lat="47.496704" lon="7.823163">
        <ele>437.038032</ele>
        <time>2021-11-07T12:56:43.956Z</time>
      </trkpt>
      <trkpt lat="47.496927" lon="7.823151">
        <ele>436.765566</ele>
        <time>2021-11-07T12:56:46.443Z</time>
      </trkpt>
      <trkpt lat="47.497246" lon="7.823247">
        <ele>436.368092</ele>
        <time>2021-11-07T12:56:49.819Z</time>
      </trkpt>
      <trkpt lat="47.498162" lon="7.823883">
        <ele>432.242645</ele>
        <time>2021-11-07T12:56:59.843Z</time>
      </trkpt>
      <trkpt lat="47.498343" lon="7.824061">
        <ele>431.156366</ele>
        <time>2021-11-07T12:57:01.901Z</time>
      </trkpt>
      <trkpt lat="47.498586" lon="7.824227">
        <ele>429.818534</ele>
        <time>2021-11-07T12:57:04.459Z</time>
      </trkpt>
      <trkpt lat="47.499488" lon="7.824926">
        <ele>423.260881</ele>
        <time>2021-11-07T12:57:13.587Z</time>
      </trkpt>
      <trkpt lat="47.499602" lon="7.824975">
        <ele>422.296234</ele>
        <time>2021-11-07T12:57:14.627Z</time>
      </trkpt>
      <trkpt lat="47.499714" lon="7.825011">
        <ele>421.364895</ele>
        <time>2021-11-07T12:57:15.611Z</time>
      </trkpt>
      <trkpt lat="47.500062" lon="7.825087">
        <ele>418.506387</ele>
        <time>2021-11-07T12:57:18.706Z</time>
      </trkpt>
      <trkpt lat="47.500269" lon="7.825147">
        <ele>416.792329</ele>
        <time>2021-11-07T12:57:20.597Z</time>
      </trkpt>
      <trkpt lat="47.500385" lon="7.825189">
        <ele>415.821907</ele>
        <time>2021-11-07T12:57:21.620Z</time>
      </trkpt>
      <trkpt lat="47.501557" lon="7.825705">
        <ele>407.122548</ele>
        <time>2021-11-07T12:57:32.329Z</time>
      </trkpt>
      <trkpt lat="47.502825" lon="7.825809">
        <ele>399.916743</ele>
        <time>2021-11-07T12:57:44.238Z</time>
      </trkpt>
      <trkpt lat="47.503143" lon="7.825808">
        <ele>399.148879</ele>
        <time>2021-11-07T12:57:47.467Z</time>
      </trkpt>
      <trkpt lat="47.503195" lon="7.825807">
        <ele>399.023306</ele>
        <time>2021-11-07T12:57:48.036Z</time>
      </trkpt>
      <trkpt lat="47.503225" lon="7.825809">
        <ele>398.950793</ele>
        <time>2021-11-07T12:57:48.368Z</time>
      </trkpt>
      <trkpt lat="47.503509" lon="7.825771">
        <ele>398.262234</ele>
        <time>2021-11-07T12:57:51.388Z</time>
      </trkpt>
      <trkpt lat="47.503860" lon="7.825735">
        <ele>397.412656</ele>
        <time>2021-11-07T12:57:55.320Z</time>
      </trkpt>
      <trkpt lat="47.504813" lon="7.825703">
        <ele>396.270129</ele>
        <time>2021-11-07T12:58:07.929Z</time>
      </trkpt>
      <trkpt lat="47.506147" lon="7.825028">
        <ele>396.234599</ele>
        <time>2021-11-07T12:58:31.023Z</time>
      </trkpt>
      <trkpt lat="47.507017" lon="7.824678">
        <ele>395.249131</ele>
        <time>2021-11-07T12:58:44.600Z</time>
      </trkpt>
      <trkpt lat="47.507990" lon="7.824326">
        <ele>393.370795</ele>
        <time>2021-11-07T12:58:55.383Z</time>
      </trkpt>
      <trkpt lat="47.508288" lon="7.824180">
        <ele>391.716857</ele>
        <time>2021-11-07T12:58:58.465Z</time>
      </trkpt>
      <trkpt lat="47.509075" lon="7.823456">
        <ele>386.834677</ele>
        <time>2021-11-07T12:59:06.992Z</time>
      </trkpt>
      <trkpt lat="47.509744" lon="7.823275">
        <ele>383.103533</ele>
        <time>2021-11-07T12:59:13.067Z</time>
      </trkpt>
      <trkpt lat="47.510203" lon="7.823212">
        <ele>380.454609</ele>
        <time>2021-11-07T12:59:17.287Z</time>
      </trkpt>
      <trkpt lat="47.510706" lon="7.823221">
        <ele>377.563943</ele>
        <time>2021-11-07T12:59:21.928Z</time>
      </trkpt>
      <trkpt lat="47.511863" lon="7.823271">
        <ele>372.927717</ele>
        <time>2021-11-07T12:59:32.971Z</time>
      </trkpt>
      <trkpt lat="47.512067" lon="7.823229">
        <ele>372.400523</ele>
        <time>2021-11-07T12:59:35.187Z</time>
      </trkpt>
      <trkpt lat="47.512263" lon="7.823167">
        <ele>371.887507</ele>
        <time>2021-11-07T12:59:37.321Z</time>
      </trkpt>
      <trkpt lat="47.512648" lon="7.822935">
        <ele>370.823540</ele>
        <time>2021-11-07T12:59:42.147Z</time>
      </trkpt>
      <trkpt lat="47.513483" lon="7.822231">
        <ele>369.221190</ele>
        <time>2021-11-07T12:59:55.156Z</time>
      </trkpt>
      <trkpt lat="47.514302" lon="7.821660">
        <ele>368.162390</ele>
        <time>2021-11-07T13:00:06.642Z</time>
      </trkpt>
      <trkpt lat="47.514708" lon="7.821376">
        <ele>367.117554</ele>
        <time>2021-11-07T13:00:11.290Z</time>
      </trkpt>
      <trkpt lat="47.514821" lon="7.821292">
        <ele>366.588384</ele>
        <time>2021-11-07T13:00:12.625Z</time>
      </trkpt>
      <trkpt lat="47.515036" lon="7.821090">
        <ele>365.522725</ele>
        <time>2021-11-07T13:00:15.136Z</time>
      </trkpt>
      <trkpt lat="47.515202" lon="7.820909">
        <ele>364.659949</ele>
        <time>2021-11-07T13:00:17.210Z</time>
      </trkpt>
      <trkpt lat="47.515268" lon="7.820836">
        <ele>364.315173</ele>
        <time>2021-11-07T13:00:17.961Z</time>
      </trkpt>
      <trkpt lat="47.515469" lon="7.820644">
        <ele>363.314104</ele>
        <time>2021-11-07T13:00:20.335Z</time>
      </trkpt>
      <trkpt lat="47.515587" lon="7.820532">
        <ele>362.727508</ele>
        <time>2021-11-07T13:00:21.616Z</time>
      </trkpt>
      <trkpt lat="47.516786" lon="7.819655">
        <ele>357.424313</ele>
        <time>2021-11-07T13:00:34.072Z</time>
      </trkpt>
      <trkpt lat="47.517657" lon="7.818442">
        <ele>353.165383</ele>
        <time>2021-11-07T13:00:46.490Z</time>
      </trkpt>
      <trkpt lat="47.518035" lon="7.818005">
        <ele>352.208743</ele>
        <time>2021-11-07T13:00:51.881Z</time>
      </trkpt>
      <trkpt lat="47.518220" lon="7.817823">
        <ele>351.765680</ele>
        <time>2021-11-07T13:00:54.414Z</time>
      </trkpt>
      <trkpt lat="47.518481" lon="7.817598">
        <ele>351.163230</ele>
        <time>2021-11-07T13:00:57.864Z</time>
      </trkpt>
      <trkpt lat="47.518941" lon="7.817228">
        <ele>350.118982</ele>
        <time>2021-11-07T13:01:03.660Z</time>
      </trkpt>
      <trkpt lat="47.519453" lon="7.816861">
        <ele>348.679198</ele>
        <time>2021-11-07T13:01:09.851Z</time>
      </trkpt>
      <trkpt lat="47.519807" lon="7.816661">
        <ele>347.669030</ele>
        <time>2021-11-07T13:01:13.787Z</time>
      </trkpt>
      <trkpt lat="47.519959" lon="7.816575">
        <ele>347.235206</ele>
        <time>2021-11-07T13:01:15.521Z</time>
      </trkpt>
      <trkpt lat="47.520002" lon="7.816556">
        <ele>347.115568</ele>
        <time>2021-11-07T13:01:15.965Z</time>
      </trkpt>
      <trkpt lat="47.520578" lon="7.816306">
        <ele>345.515280</ele>
        <time>2021-11-07T13:01:22.091Z</time>
      </trkpt>
      <trkpt lat="47.521028" lon="7.816163">
        <ele>344.264534</ele>
        <time>2021-11-07T13:01:26.817Z</time>
      </trkpt>
      <trkpt lat="47.521087" lon="7.816144">
        <ele>344.098834</ele>
        <time>2021-11-07T13:01:27.377Z</time>
      </trkpt>
      <trkpt lat="47.521199" lon="7.816108">
        <ele>343.784312</ele>
        <time>2021-11-07T13:01:28.580Z</time>
      </trkpt>
      <trkpt lat="47.521383" lon="7.816075">
        <ele>343.275666</ele>
        <time>2021-11-07T13:01:30.546Z</time>
      </trkpt>
      <trkpt lat="47.521699" lon="7.816019">
        <ele>342.402271</ele>
        <time>2021-11-07T13:01:33.834Z</time>
      </trkpt>
      <trkpt lat="47.521870" lon="7.815989">
        <ele>341.929709</ele>
        <time>2021-11-07T13:01:35.589Z</time>
      </trkpt>
      <trkpt lat="47.522090" lon="7.815952">
        <ele>341.322077</ele>
        <time>2021-11-07T13:01:38.077Z</time>
      </trkpt>
      <trkpt lat="47.523608" lon="7.815695">
        <ele>337.291790</ele>
        <time>2021-11-07T13:01:54.143Z</time>
      </trkpt>
      <trkpt lat="47.523730" lon="7.815653">
        <ele>336.966513</ele>
        <time>2021-11-07T13:01:55.454Z</time>
      </trkpt>
      <trkpt lat="47.523757" lon="7.815629">
        <ele>336.884734</ele>
        <time>2021-11-07T13:01:55.737Z</time>
      </trkpt>
      <trkpt lat="47.523836" lon="7.814923">
        <ele>335.629756</ele>
        <time>2021-11-07T13:02:00.972Z</time>
      </trkpt>
      <trkpt lat="47.523994" lon="7.814691">
        <ele>335.112438</ele>
        <time>2021-11-07T13:02:03.254Z</time>
      </trkpt>
      <trkpt lat="47.524032" lon="7.814643">
        <ele>335.000714</ele>
        <time>2021-11-07T13:02:03.767Z</time>
      </trkpt>
      <trkpt lat="47.524286" lon="7.814362">
        <ele>334.291506</ele>
        <time>2021-11-07T13:02:07.099Z</time>
      </trkpt>
      <trkpt lat="47.524601" lon="7.814100">
        <ele>333.483356</ele>
        <time>2021-11-07T13:02:10.890Z</time>
      </trkpt>
      <trkpt lat="47.524645" lon="7.814069">
        <ele>333.374362</ele>
        <time>2021-11-07T13:02:11.412Z</time>
      </trkpt>
      <trkpt lat="47.524963" lon="7.813836">
        <ele>332.580729</ele>
        <time>2021-11-07T13:02:15.322Z</time>
      </trkpt>
      <trkpt lat="47.524982" lon="7.813822">
        <ele>332.533258</ele>
        <time>2021-11-07T13:02:15.557Z</time>
      </trkpt>
      <trkpt lat="47.525103" lon="7.813754">
        <ele>332.243761</ele>
        <time>2021-11-07T13:02:17.013Z</time>
      </trkpt>
      <trkpt lat="47.525103" lon="7.813754">
        <ele>332.243761</ele>
        <time>2021-11-07T13:02:17.019Z</time>
      </trkpt>
      <trkpt lat="47.525103" lon="7.813754">
        <ele>332.243761</ele>
        <time>2021-11-07T13:02:17.019Z</time>
      </trkpt>
      <trkpt lat="47.525879" lon="7.814288">
        <ele>330.675472</ele>
        <time>2021-11-07T13:02:32.879Z</time>
      </trkpt>
      <trkpt lat="47.526655" lon="7.814822">
        <ele>329.344360</ele>
        <time>2021-11-07T13:02:48.734Z</time>
      </trkpt>
      <trkpt lat="47.526655" lon="7.814822">
        <ele>329.344360</ele>
        <time>2021-11-07T13:02:48.743Z</time>
      </trkpt>
      <trkpt lat="47.527112" lon="7.813810">
        <ele>328.176210</ele>
        <time>2021-11-07T13:03:03.979Z</time>
      </trkpt>
      <trkpt lat="47.527570" lon="7.812798">
        <ele>327.131992</ele>
        <time>2021-11-07T13:03:19.226Z</time>
      </trkpt>
      <trkpt lat="47.528028" lon="7.811785">
        <ele>326.121597</ele>
        <time>2021-11-07T13:03:34.482Z</time>
      </trkpt>
      <trkpt lat="47.528485" lon="7.810773">
        <ele>325.199483</ele>
        <time>2021-11-07T13:03:49.718Z</time>
      </trkpt>
      <trkpt lat="47.528943" lon="7.809761">
        <ele>324.360554</ele>
        <time>2021-11-07T13:04:04.964Z</time>
      </trkpt>
      <trkpt lat="47.529100" lon="7.809485">
        <ele>324.342873</ele>
        <time>2021-11-07T13:04:08.019Z</time>
      </trkpt>
      <trkpt lat="47.529208" lon="7.809338">
        <ele>324.332230</ele>
        <time>2021-11-07T13:04:09.821Z</time>
      </trkpt>
      <trkpt lat="47.529274" lon="7.809267">
        <ele>324.326311</ele>
        <time>2021-11-07T13:04:10.997Z</time>
      </trkpt>
      <trkpt lat="47.529336" lon="7.809212">
        <ele>324.321067</ele>
        <time>2021-11-07T13:04:12.328Z</time>
      </trkpt>
      <trkpt lat="47.529513" lon="7.809105">
        <ele>324.307195</ele>
        <time>2021-11-07T13:04:14.789Z</time>
      </trkpt>
      <trkpt lat="47.529594" lon="7.809061">
        <ele>324.300935</ele>
        <time>2021-11-07T13:04:16.049Z</time>
      </trkpt>
      <trkpt lat="47.529966" lon="7.808858">
        <ele>324.272169</ele>
        <time>2021-11-07T13:04:22.441Z</time>
      </trkpt>
      <trkpt lat="47.530041" lon="7.808819">
        <ele>324.266401</ele>
        <time>2021-11-07T13:04:23.979Z</time>
      </trkpt>
      <trkpt lat="47.530543" lon="7.808552">
        <ele>324.276924</ele>
        <time>2021-11-07T13:04:32.685Z</time>
      </trkpt>
      <trkpt lat="47.530585" lon="7.808529">
        <ele>324.293317</ele>
        <time>2021-11-07T13:04:33.434Z</time>
      </trkpt>
      <trkpt lat="47.530684" lon="7.808469">
        <ele>324.332478</ele>
        <time>2021-11-07T13:04:35.689Z</time>
      </trkpt>
      <trkpt lat="47.531066" lon="7.808197">
        <ele>324.487647</ele>
        <time>2021-11-07T13:04:43.204Z</time>
      </trkpt>
      <trkpt lat="47.531380" lon="7.807943">
        <ele>324.618627</ele>
        <time>2021-11-07T13:04:49.508Z</time>
      </trkpt>
      <trkpt lat="47.531735" lon="7.807655">
        <ele>324.766809</ele>
        <time>2021-11-07T13:04:55.869Z</time>
      </trkpt>
      <trkpt lat="47.532412" lon="7.807037">
        <ele>324.552427</ele>
        <time>2021-11-07T13:05:07.308Z</time>
      </trkpt>
      <trkpt lat="47.532581" lon="7.806843">
        <ele>324.388887</ele>
        <time>2021-11-07T13:05:10.143Z</time>
      </trkpt>
      <trkpt lat="47.532546" lon="7.806703">
        <ele>324.311792</ele>
        <time>2021-11-07T13:05:11.805Z</time>
      </trkpt>
      <trkpt lat="47.533091" lon="7.806305">
        <ele>323.847029</ele>
        <time>2021-11-07T13:05:22.239Z</time>
      </trkpt>
      <trkpt lat="47.533704" lon="7.806027">
        <ele>323.416336</ele>
        <time>2021-11-07T13:05:33.038Z</time>
      </trkpt>
      <trkpt lat="47.533723" lon="7.806018">
        <ele>323.406699</ele>
        <time>2021-11-07T13:05:33.339Z</time>
      </trkpt>
      <trkpt lat="47.534648" lon="7.805785">
        <ele>322.953440</ele>
        <time>2021-11-07T13:05:50.640Z</time>
      </trkpt>
      <trkpt lat="47.534894" lon="7.805725">
        <ele>322.833003</ele>
        <time>2021-11-07T13:05:55.336Z</time>
      </trkpt>
      <trkpt lat="47.535092" lon="7.805671">
        <ele>322.735746</ele>
        <time>2021-11-07T13:05:59.745Z</time>
      </trkpt>
      <trkpt lat="47.535828" lon="7.805308">
        <ele>322.792760</ele>
        <time>2021-11-07T13:06:15.853Z</time>
      </trkpt>
      <trkpt lat="47.536875" lon="7.804558">
        <ele>323.071111</ele>
        <time>2021-11-07T13:06:41.784Z</time>
      </trkpt>
      <trkpt lat="47.537755" lon="7.803639">
        <ele>322.458716</ele>
        <time>2021-11-07T13:07:01.923Z</time>
      </trkpt>
      <trkpt lat="47.538164" lon="7.803170">
        <ele>322.149250</ele>
        <time>2021-11-07T13:07:11.069Z</time>
      </trkpt>
      <trkpt lat="47.538256" lon="7.803059">
        <ele>322.078257</ele>
        <time>2021-11-07T13:07:12.908Z</time>
      </trkpt>
      <trkpt lat="47.540006" lon="7.800680">
        <ele>320.378001</ele>
        <time>2021-11-07T13:07:53.801Z</time>
      </trkpt>
      <trkpt lat="47.540192" lon="7.800458">
        <ele>320.500258</ele>
        <time>2021-11-07T13:07:58.348Z</time>
      </trkpt>
      <trkpt lat="47.540260" lon="7.800353">
        <ele>320.550532</ele>
        <time>2021-11-07T13:08:01.413Z</time>
      </trkpt>
      <trkpt lat="47.540644" lon="7.800163">
        <ele>320.757747</ele>
        <time>2021-11-07T13:08:11.208Z</time>
      </trkpt>
      <trkpt lat="47.540897" lon="7.800171">
        <ele>320.887269</ele>
        <time>2021-11-07T13:08:17.375Z</time>
      </trkpt>
      <trkpt lat="47.541705" lon="7.800028">
        <ele>321.026118</ele>
        <time>2021-11-07T13:08:39.148Z</time>
      </trkpt>
      <trkpt lat="47.542307" lon="7.799830">
        <ele>320.971708</ele>
        <time>2021-11-07T13:08:54.121Z</time>
      </trkpt>
      <trkpt lat="47.542998" lon="7.799859">
        <ele>320.910716</ele>
        <time>2021-11-07T13:09:06.350Z</time>
      </trkpt>
      <trkpt lat="47.544071" lon="7.799629">
        <ele>315.659776</ele>
        <time>2021-11-07T13:09:21.272Z</time>
      </trkpt>
      <trkpt lat="47.544184" lon="7.799620">
        <ele>315.097429</ele>
        <time>2021-11-07T13:09:22.661Z</time>
      </trkpt>
      <trkpt lat="47.544345" lon="7.799570">
        <ele>314.279974</ele>
        <time>2021-11-07T13:09:24.856Z</time>
      </trkpt>
      <trkpt lat="47.544568" lon="7.799371">
        <ele>312.986290</ele>
        <time>2021-11-07T13:09:28.213Z</time>
      </trkpt>
      <trkpt lat="47.544749" lon="7.799388">
        <ele>312.085033</ele>
        <time>2021-11-07T13:09:30.655Z</time>
      </trkpt>
      <trkpt lat="47.544827" lon="7.799356">
        <ele>311.673609</ele>
        <time>2021-11-07T13:09:31.637Z</time>
      </trkpt>
      <trkpt lat="47.545096" lon="7.799250">
        <ele>310.245956</ele>
        <time>2021-11-07T13:09:35.357Z</time>
      </trkpt>
      <trkpt lat="47.545182" lon="7.799205">
        <ele>309.778163</ele>
        <time>2021-11-07T13:09:36.453Z</time>
      </trkpt>
      <trkpt lat="47.545396" lon="7.798977">
        <ele>308.426210</ele>
        <time>2021-11-07T13:09:39.995Z</time>
      </trkpt>
      <trkpt lat="47.545449" lon="7.798705">
        <ele>307.446082</ele>
        <time>2021-11-07T13:09:42.396Z</time>
      </trkpt>
      <trkpt lat="47.545511" lon="7.798680">
        <ele>307.116521</ele>
        <time>2021-11-07T13:09:43.227Z</time>
      </trkpt>
      <trkpt lat="47.545581" lon="7.798713">
        <ele>306.739757</ele>
        <time>2021-11-07T13:09:44.265Z</time>
      </trkpt>
      <trkpt lat="47.545731" lon="7.798810">
        <ele>305.900319</ele>
        <time>2021-11-07T13:09:46.472Z</time>
      </trkpt>
      <trkpt lat="47.545807" lon="7.798846">
        <ele>305.491081</ele>
        <time>2021-11-07T13:09:47.579Z</time>
      </trkpt>
      <trkpt lat="47.546418" lon="7.798980">
        <ele>302.636101</ele>
        <time>2021-11-07T13:09:56.427Z</time>
      </trkpt>
      <trkpt lat="47.547540" lon="7.799538">
        <ele>301.068422</ele>
        <time>2021-11-07T13:10:16.150Z</time>
      </trkpt>
      <trkpt lat="47.547912" lon="7.799646">
        <ele>300.566306</ele>
        <time>2021-11-07T13:10:23.531Z</time>
      </trkpt>
      <trkpt lat="47.548459" lon="7.799691">
        <ele>300.324380</ele>
        <time>2021-11-07T13:10:34.469Z</time>
      </trkpt>
      <trkpt lat="47.548535" lon="7.799720">
        <ele>300.316765</ele>
        <time>2021-11-07T13:10:35.989Z</time>
      </trkpt>
      <trkpt lat="47.548514" lon="7.799795">
        <ele>300.311447</ele>
        <time>2021-11-07T13:10:37.053Z</time>
      </trkpt>
      <trkpt lat="47.548519" lon="7.799896">
        <ele>300.304815</ele>
        <time>2021-11-07T13:10:38.408Z</time>
      </trkpt>
      <trkpt lat="47.548545" lon="7.800404">
        <ele>300.271450</ele>
        <time>2021-11-07T13:10:45.198Z</time>
      </trkpt>
      <trkpt lat="47.548560" lon="7.800672">
        <ele>300.253839</ele>
        <time>2021-11-07T13:10:48.891Z</time>
      </trkpt>
      <trkpt lat="47.548569" lon="7.800838">
        <ele>300.242932</ele>
        <time>2021-11-07T13:10:51.135Z</time>
      </trkpt>
      <trkpt lat="47.548576" lon="7.800968">
        <ele>300.234391</ele>
        <time>2021-11-07T13:10:52.910Z</time>
      </trkpt>
      <trkpt lat="47.548596" lon="7.801213">
        <ele>300.218229</ele>
        <time>2021-11-07T13:10:56.289Z</time>
      </trkpt>
      <trkpt lat="47.548607" lon="7.801690">
        <ele>300.185323</ele>
        <time>2021-11-07T13:11:02.790Z</time>
      </trkpt>
      <trkpt lat="47.548626" lon="7.802129">
        <ele>300.114265</ele>
        <time>2021-11-07T13:11:08.709Z</time>
      </trkpt>
      <trkpt lat="47.548877" lon="7.802168">
        <ele>300.053865</ele>
        <time>2021-11-07T13:11:13.701Z</time>
      </trkpt>
      <trkpt lat="47.549410" lon="7.802226">
        <ele>299.925963</ele>
        <time>2021-11-07T13:11:24.115Z</time>
      </trkpt>
      <trkpt lat="47.549481" lon="7.802234">
        <ele>299.908922</ele>
        <time>2021-11-07T13:11:25.452Z</time>
      </trkpt>
      <trkpt lat="47.549879" lon="7.802247">
        <ele>299.813649</ele>
        <time>2021-11-07T13:11:32.918Z</time>
      </trkpt>
      <trkpt lat="47.550146" lon="7.802262">
        <ele>299.748076</ele>
        <time>2021-11-07T13:11:37.993Z</time>
      </trkpt>
      <trkpt lat="47.550134" lon="7.803051">
        <ele>299.594439</ele>
        <time>2021-11-07T13:11:48.241Z</time>
      </trkpt>
      <trkpt lat="47.550196" lon="7.803120">
        <ele>299.572073</ele>
        <time>2021-11-07T13:11:49.691Z</time>
      </trkpt>
      <trkpt lat="47.550981" lon="7.803132">
        <ele>299.345643</ele>
        <time>2021-11-07T13:12:04.345Z</time>
      </trkpt>
      <trkpt lat="47.551163" lon="7.803129">
        <ele>299.293146</ele>
        <time>2021-11-07T13:12:07.761Z</time>
      </trkpt>
      <trkpt lat="47.551505" lon="7.803153">
        <ele>299.337937</ele>
        <time>2021-11-07T13:12:14.441Z</time>
      </trkpt>
      <trkpt lat="47.551598" lon="7.803160">
        <ele>299.397781</ele>
        <time>2021-11-07T13:12:16.327Z</time>
      </trkpt>
      <trkpt lat="47.551666" lon="7.803144">
        <ele>299.442029</ele>
        <time>2021-11-07T13:12:21.072Z</time>
      </trkpt>
      <trkpt lat="47.551732" lon="7.803125">
        <ele>299.485238</ele>
        <time>2021-11-07T13:12:25.738Z</time>
      </trkpt>
      <trkpt lat="47.551744" lon="7.803277">
        <ele>299.551616</ele>
        <time>2021-11-07T13:12:27.449Z</time>
      </trkpt>
      <trkpt lat="47.551751" lon="7.803369">
        <ele>299.591773</ele>
        <time>2021-11-07T13:12:28.510Z</time>
      </trkpt>
      <trkpt lat="47.551692" lon="7.803510">
        <ele>299.663731</ele>
        <time>2021-11-07T13:12:31.181Z</time>
      </trkpt>
      <trkpt lat="47.551741" lon="7.804294">
        <ele>300.005241</ele>
        <time>2021-11-07T13:12:44.177Z</time>
      </trkpt>
      <trkpt lat="47.551744" lon="7.804473">
        <ele>300.082905</ele>
        <time>2021-11-07T13:12:46.695Z</time>
      </trkpt>
      <trkpt lat="47.551731" lon="7.804667">
        <ele>300.167465</ele>
        <time>2021-11-07T13:12:50.690Z</time>
      </trkpt>
      <trkpt lat="47.551709" lon="7.805000">
        <ele>300.312592</ele>
        <time>2021-11-07T13:12:55.157Z</time>
      </trkpt>
      <trkpt lat="47.551681" lon="7.805477">
        <ele>300.459566</ele>
        <time>2021-11-07T13:13:02.834Z</time>
      </trkpt>
      <trkpt lat="47.551680" lon="7.805573">
        <ele>300.481068</ele>
        <time>2021-11-07T13:13:04.306Z</time>
      </trkpt>
      <trkpt lat="47.551671" lon="7.806117">
        <ele>300.602934</ele>
        <time>2021-11-07T13:13:13.006Z</time>
      </trkpt>
      <trkpt lat="47.551651" lon="7.806246">
        <ele>300.632576</ele>
        <time>2021-11-07T13:13:15.883Z</time>
      </trkpt>
      <trkpt lat="47.551895" lon="7.806278">
        <ele>300.713856</ele>
        <time>2021-11-07T13:13:19.414Z</time>
      </trkpt>
      <trkpt lat="47.552015" lon="7.806307">
        <ele>300.754201</ele>
        <time>2021-11-07T13:13:22.276Z</time>
      </trkpt>
      <trkpt lat="47.552068" lon="7.806445">
        <ele>300.789759</ele>
        <time>2021-11-07T13:13:23.712Z</time>
      </trkpt>
      <trkpt lat="47.552398" lon="7.808880">
        <ele>300.369971</ele>
        <time>2021-11-07T13:13:45.827Z</time>
      </trkpt>
      <trkpt lat="47.552566" lon="7.810386">
        <ele>299.745980</ele>
        <time>2021-11-07T13:13:58.838Z</time>
      </trkpt>
      <trkpt lat="47.552711" lon="7.812955">
        <ele>298.598524</ele>
        <time>2021-11-07T13:14:21.447Z</time>
      </trkpt>
      <trkpt lat="47.552844" lon="7.816432">
        <ele>297.496606</ele>
        <time>2021-11-07T13:14:51.940Z</time>
      </trkpt>
      <trkpt lat="47.552948" lon="7.819358">
        <ele>297.832386</ele>
        <time>2021-11-07T13:15:23.170Z</time>
      </trkpt>
      <trkpt lat="47.552896" lon="7.820699">
        <ele>298.300610</ele>
        <time>2021-11-07T13:15:39.254Z</time>
      </trkpt>
      <trkpt lat="47.552567" lon="7.824508">
        <ele>300.222371</ele>
        <time>2021-11-07T13:16:25.739Z</time>
      </trkpt>
      <trkpt lat="47.552491" lon="7.827227">
        <ele>301.781051</ele>
        <time>2021-11-07T13:16:57.478Z</time>
      </trkpt>
      <trkpt lat="47.552515" lon="7.828094">
        <ele>302.376899</ele>
        <time>2021-11-07T13:17:09.188Z</time>
      </trkpt>
      <trkpt lat="47.552477" lon="7.828294">
        <ele>302.519572</ele>
        <time>2021-11-07T13:17:11.805Z</time>
      </trkpt>
      <trkpt lat="47.552421" lon="7.828481">
        <ele>302.660053</ele>
        <time>2021-11-07T13:17:14.737Z</time>
      </trkpt>
      <trkpt lat="47.552404" lon="7.828582">
        <ele>302.790616</ele>
        <time>2021-11-07T13:17:16.421Z</time>
      </trkpt>
      <trkpt lat="47.552416" lon="7.828822">
        <ele>303.164418</ele>
        <time>2021-11-07T13:17:19.655Z</time>
      </trkpt>
      <trkpt lat="47.552554" lon="7.829266">
        <ele>303.923678</ele>
        <time>2021-11-07T13:17:27.006Z</time>
      </trkpt>
      <trkpt lat="47.552645" lon="7.830686">
        <ele>306.139213</ele>
        <time>2021-11-07T13:17:50.312Z</time>
      </trkpt>
      <trkpt lat="47.552690" lon="7.832598">
        <ele>309.798589</ele>
        <time>2021-11-07T13:18:25.789Z</time>
      </trkpt>
      <trkpt lat="47.552616" lon="7.832891">
        <ele>310.430661</ele>
        <time>2021-11-07T13:18:31.153Z</time>
      </trkpt>
      <trkpt lat="47.552556" lon="7.832977">
        <ele>310.680566</ele>
        <time>2021-11-07T13:18:33.885Z</time>
      </trkpt>
      <trkpt lat="47.552511" lon="7.833072">
        <ele>310.915062</ele>
        <time>2021-11-07T13:18:35.910Z</time>
      </trkpt>
      <trkpt lat="47.552467" lon="7.833198">
        <ele>311.201692</ele>
        <time>2021-11-07T13:18:38.312Z</time>
      </trkpt>
      <trkpt lat="47.552452" lon="7.833284">
        <ele>311.381156</ele>
        <time>2021-11-07T13:18:39.923Z</time>
      </trkpt>
      <trkpt lat="47.552696" lon="7.833789">
        <ele>312.525314</ele>
        <time>2021-11-07T13:18:50.954Z</time>
      </trkpt>
      <trkpt lat="47.552700" lon="7.833938">
        <ele>312.748596</ele>
        <time>2021-11-07T13:18:53.899Z</time>
      </trkpt>
      <trkpt lat="47.552714" lon="7.835010">
        <ele>314.354062</ele>
        <time>2021-11-07T13:19:12.376Z</time>
      </trkpt>
      <trkpt lat="47.552719" lon="7.836790">
        <ele>316.746028</ele>
        <time>2021-11-07T13:19:37.659Z</time>
      </trkpt>
      <trkpt lat="47.552697" lon="7.838068">
        <ele>318.022460</ele>
        <time>2021-11-07T13:19:55.280Z</time>
      </trkpt>
      <trkpt lat="47.552736" lon="7.838578">
        <ele>318.534927</ele>
        <time>2021-11-07T13:20:02.377Z</time>
      </trkpt>
      <trkpt lat="47.552802" lon="7.839009">
        <ele>318.987236</ele>
        <time>2021-11-07T13:20:08.585Z</time>
      </trkpt>
      <trkpt lat="47.552939" lon="7.839526">
        <ele>319.594421</ele>
        <time>2021-11-07T13:20:16.374Z</time>
      </trkpt>
      <trkpt lat="47.553094" lon="7.840588">
        <ele>320.782227</ele>
        <time>2021-11-07T13:20:32.360Z</time>
      </trkpt>
      <trkpt lat="47.553231" lon="7.841529">
        <ele>321.815774</ele>
        <time>2021-11-07T13:20:46.506Z</time>
      </trkpt>
      <trkpt lat="47.553216" lon="7.841849">
        <ele>322.058936</ele>
        <time>2021-11-07T13:20:51.028Z</time>
      </trkpt>
      <trkpt lat="47.553123" lon="7.842222">
        <ele>322.360368</ele>
        <time>2021-11-07T13:20:56.260Z</time>
      </trkpt>
      <trkpt lat="47.553133" lon="7.842431">
        <ele>322.519199</ele>
        <time>2021-11-07T13:20:59.397Z</time>
      </trkpt>
      <trkpt lat="47.552833" lon="7.842495">
        <ele>322.859634</ele>
        <time>2021-11-07T13:21:06.726Z</time>
      </trkpt>
      <trkpt lat="47.552380" lon="7.842592">
        <ele>323.373730</ele>
        <time>2021-11-07T13:21:17.804Z</time>
      </trkpt>
      <trkpt lat="47.551922" lon="7.842704">
        <ele>323.869115</ele>
        <time>2021-11-07T13:21:28.373Z</time>
      </trkpt>
      <trkpt lat="47.551668" lon="7.842770">
        <ele>324.084673</ele>
        <time>2021-11-07T13:21:34.332Z</time>
      </trkpt>
      <trkpt lat="47.551454" lon="7.842815">
        <ele>324.265348</ele>
        <time>2021-11-07T13:21:39.019Z</time>
      </trkpt>
      <trkpt lat="47.551344" lon="7.844621">
        <ele>325.288380</ele>
        <time>2021-11-07T13:22:01.533Z</time>
      </trkpt>
      <trkpt lat="47.551205" lon="7.846694">
        <ele>327.168712</ele>
        <time>2021-11-07T13:22:29.521Z</time>
      </trkpt>
      <trkpt lat="47.551184" lon="7.847206">
        <ele>327.632979</ele>
        <time>2021-11-07T13:22:36.907Z</time>
      </trkpt>
      <trkpt lat="47.551196" lon="7.847517">
        <ele>327.947045</ele>
        <time>2021-11-07T13:22:41.471Z</time>
      </trkpt>
      <trkpt lat="47.551669" lon="7.848083">
        <ele>328.889549</ele>
        <time>2021-11-07T13:22:54.556Z</time>
      </trkpt>
      <trkpt lat="47.551242" lon="7.848702">
        <ele>329.815603</ele>
        <time>2021-11-07T13:23:07.139Z</time>
      </trkpt>
      <trkpt lat="47.550975" lon="7.849066">
        <ele>330.378054</ele>
        <time>2021-11-07T13:23:14.455Z</time>
      </trkpt>
      <trkpt lat="47.550810" lon="7.849346">
        <ele>330.692729</ele>
        <time>2021-11-07T13:23:20.848Z</time>
      </trkpt>
      <trkpt lat="47.550488" lon="7.850081">
        <ele>331.357260</ele>
        <time>2021-11-07T13:23:36.314Z</time>
      </trkpt>
      <trkpt lat="47.550333" lon="7.850434">
        <ele>331.676632</ele>
        <time>2021-11-07T13:23:43.645Z</time>
      </trkpt>
      <trkpt lat="47.550009" lon="7.851173">
        <ele>332.344935</ele>
        <time>2021-11-07T13:23:58.241Z</time>
      </trkpt>
      <trkpt lat="47.549652" lon="7.851969">
        <ele>332.484103</ele>
        <time>2021-11-07T13:24:12.120Z</time>
      </trkpt>
      <trkpt lat="47.549535" lon="7.852225">
        <ele>332.469613</ele>
        <time>2021-11-07T13:24:16.177Z</time>
      </trkpt>
      <trkpt lat="47.549285" lon="7.852784">
        <ele>332.438185</ele>
        <time>2021-11-07T13:24:24.810Z</time>
      </trkpt>
      <trkpt lat="47.549285" lon="7.852783">
        <ele>332.438138</ele>
        <time>2021-11-07T13:24:24.821Z</time>
      </trkpt>
      <trkpt lat="47.549285" lon="7.852784">
        <ele>332.438091</ele>
        <time>2021-11-07T13:24:24.836Z</time>
      </trkpt>
      <trkpt lat="47.549708" lon="7.853279">
        <ele>332.400661</ele>
        <time>2021-11-07T13:24:35.236Z</time>
      </trkpt>
      <trkpt lat="47.550221" lon="7.853833">
        <ele>332.099326</ele>
        <time>2021-11-07T13:24:47.157Z</time>
      </trkpt>
      <trkpt lat="47.549883" lon="7.854434">
        <ele>331.805742</ele>
        <time>2021-11-07T13:24:53.834Z</time>
      </trkpt>
      <trkpt lat="47.549566" lon="7.855225">
        <ele>331.460503</ele>
        <time>2021-11-07T13:25:04.979Z</time>
      </trkpt>
      <trkpt lat="47.549362" lon="7.855774">
        <ele>331.335544</ele>
        <time>2021-11-07T13:25:12.900Z</time>
      </trkpt>
      <trkpt lat="47.548887" lon="7.857308">
        <ele>331.118026</ele>
        <time>2021-11-07T13:25:35.008Z</time>
      </trkpt>
      <trkpt lat="47.548743" lon="7.857692">
        <ele>331.061409</ele>
        <time>2021-11-07T13:25:40.980Z</time>
      </trkpt>
      <trkpt lat="47.548701" lon="7.857893">
        <ele>331.110138</ele>
        <time>2021-11-07T13:25:43.952Z</time>
      </trkpt>
      <trkpt lat="47.548686" lon="7.857973">
        <ele>331.151930</ele>
        <time>2021-11-07T13:25:45.075Z</time>
      </trkpt>
      <trkpt lat="47.548611" lon="7.858381">
        <ele>331.364774</ele>
        <time>2021-11-07T13:25:51.289Z</time>
      </trkpt>
      <trkpt lat="47.548334" lon="7.859801">
        <ele>332.108776</ele>
        <time>2021-11-07T13:26:14.326Z</time>
      </trkpt>
      <trkpt lat="47.548049" lon="7.860929">
        <ele>333.113895</ele>
        <time>2021-11-07T13:26:35.345Z</time>
      </trkpt>
      <trkpt lat="47.547930" lon="7.861711">
        <ele>334.014183</ele>
        <time>2021-11-07T13:26:50.108Z</time>
      </trkpt>
      <trkpt lat="47.547568" lon="7.863151">
        <ele>335.383795</ele>
        <time>2021-11-07T13:27:18.842Z</time>
      </trkpt>
      <trkpt lat="47.547320" lon="7.863864">
        <ele>335.383795</ele>
        <time>2021-11-07T13:27:33.107Z</time>
      </trkpt>
      <trkpt lat="47.547167" lon="7.864112">
        <ele>335.383795</ele>
        <time>2021-11-07T13:27:38.941Z</time>
      </trkpt>
    </trkseg>
  </trk>
</gpx>